<?xml version="1.0" encoding="UTF-8" standalone="no" ?>
<gpx xmlns="http://www.topografix.com/GPX/1/1" xmlns:xsi="http://www.w3.org/2001/XMLSchema-instance" xsi:schemaLocation="http://www.topografix.com/GPX/1/1 http://www.topografix.com/GPX/1/1/gpx.xsd" version="1.1" creator="VisuGPX - https://www.visugpx.com">
  <metadata>
    <name>tour Meaudre</name>
    <desc><![CDATA[projet]]></desc>
  </metadata>
  <trk>
    <name><![CDATA[tour Meaudre_1]]></name>
    <desc><![CDATA[





]]></desc>
    <trkseg>
      <trkpt lat="45.07421" lon="5.54637">
        <ele>973</ele>
        <time>2020-06-03T07:13:14Z</time>
        <extensions>
          <visugpx:TrkExtension xmlns:visugpx="https://www.visugpx.com/editgpx/">
            <visugpx:node>6</visugpx:node>
            </visugpx:TrkExtension>
        </extensions>
      </trkpt>
      <trkpt lat="45.07436" lon="5.54651">
        <ele>973</ele>
        <time>2020-06-03T07:13:04Z</time>
      </trkpt>
      <trkpt lat="45.07441" lon="5.5466">
        <ele>972.5</ele>
        <time>2020-06-03T07:12:56Z</time>
        <extensions>
          <visugpx:TrkExtension xmlns:visugpx="https://www.visugpx.com/editgpx/">
            <visugpx:node>1</visugpx:node>
            </visugpx:TrkExtension>
        </extensions>
      </trkpt>
      <trkpt lat="45.07443" lon="5.54661">
        <ele>979.7</ele>
        <time>2020-06-03T12:25:27Z</time>
      </trkpt>
      <trkpt lat="45.07461" lon="5.54671">
        <ele>980.2</ele>
        <time>2020-06-03T12:25:21Z</time>
      </trkpt>
      <trkpt lat="45.07469" lon="5.54677">
        <ele>980.2</ele>
        <time>2020-06-03T12:25:19Z</time>
      </trkpt>
      <trkpt lat="45.07512" lon="5.54698">
        <ele>982.6</ele>
        <time>2020-06-03T12:25:13Z</time>
      </trkpt>
      <trkpt lat="45.07535" lon="5.54708">
        <ele>984.1</ele>
        <time>2020-06-03T12:25:10Z</time>
      </trkpt>
      <trkpt lat="45.07568" lon="5.54719">
        <ele>987.4</ele>
        <time>2020-06-03T12:25:04Z</time>
      </trkpt>
      <trkpt lat="45.07589" lon="5.54727">
        <ele>987.4</ele>
        <time>2020-06-03T12:24:59Z</time>
      </trkpt>
      <trkpt lat="45.07636" lon="5.54753">
        <ele>987.9</ele>
        <time>2020-06-03T12:24:48Z</time>
      </trkpt>
      <trkpt lat="45.07674" lon="5.5477">
        <ele>988.4</ele>
        <time>2020-06-03T12:24:40Z</time>
      </trkpt>
      <trkpt lat="45.07726" lon="5.54797">
        <ele>988.4</ele>
        <time>2020-06-03T12:24:28Z</time>
      </trkpt>
      <trkpt lat="45.07771" lon="5.54818">
        <ele>989.3</ele>
        <time>2020-06-03T12:24:18Z</time>
      </trkpt>
      <trkpt lat="45.07779" lon="5.54821">
        <ele>990.8</ele>
        <time>2020-06-03T12:24:16Z</time>
      </trkpt>
      <trkpt lat="45.07808" lon="5.54834">
        <ele>990.8</ele>
        <time>2020-06-03T12:24:08Z</time>
      </trkpt>
      <trkpt lat="45.07834" lon="5.54842">
        <ele>990.3</ele>
        <time>2020-06-03T12:24:00Z</time>
      </trkpt>
      <trkpt lat="45.07863" lon="5.54853">
        <ele>989.8</ele>
        <time>2020-06-03T12:23:51Z</time>
      </trkpt>
      <trkpt lat="45.07892" lon="5.54859">
        <ele>987.9</ele>
        <time>2020-06-03T12:23:42Z</time>
      </trkpt>
      <trkpt lat="45.0792" lon="5.54858">
        <ele>986.5</ele>
        <time>2020-06-03T12:23:34Z</time>
      </trkpt>
      <trkpt lat="45.0795" lon="5.54858">
        <ele>986.5</ele>
        <time>2020-06-03T12:23:26Z</time>
      </trkpt>
      <trkpt lat="45.07959" lon="5.5486">
        <ele>986.9</ele>
        <time>2020-06-03T12:23:24Z</time>
      </trkpt>
      <trkpt lat="45.08004" lon="5.54868">
        <ele>987.4</ele>
        <time>2020-06-03T12:23:14Z</time>
      </trkpt>
      <trkpt lat="45.08022" lon="5.54872">
        <ele>987.4</ele>
        <time>2020-06-03T12:23:10Z</time>
      </trkpt>
      <trkpt lat="45.08031" lon="5.54874">
        <ele>987.4</ele>
        <time>2020-06-03T12:23:08Z</time>
      </trkpt>
      <trkpt lat="45.08035" lon="5.54876">
        <ele>987.4</ele>
        <time>2020-06-03T12:23:07Z</time>
      </trkpt>
      <trkpt lat="45.08075" lon="5.54894">
        <ele>987.4</ele>
        <time>2020-06-03T12:22:57Z</time>
      </trkpt>
      <trkpt lat="45.08107" lon="5.5492">
        <ele>986.9</ele>
        <time>2020-06-03T12:22:49Z</time>
      </trkpt>
      <trkpt lat="45.08147" lon="5.54955">
        <ele>986.9</ele>
        <time>2020-06-03T12:22:39Z</time>
      </trkpt>
      <trkpt lat="45.08152" lon="5.54958">
        <ele>986.9</ele>
        <time>2020-06-03T12:22:38Z</time>
      </trkpt>
      <trkpt lat="45.08201" lon="5.54989">
        <ele>986</ele>
        <time>2020-06-03T12:22:26Z</time>
      </trkpt>
      <trkpt lat="45.08248" lon="5.55012">
        <ele>986.5</ele>
        <time>2020-06-03T12:22:16Z</time>
      </trkpt>
      <trkpt lat="45.08293" lon="5.55032">
        <ele>986.9</ele>
        <time>2020-06-03T12:22:07Z</time>
      </trkpt>
      <trkpt lat="45.08335" lon="5.55056">
        <ele>987.4</ele>
        <time>2020-06-03T12:21:58Z</time>
      </trkpt>
      <trkpt lat="45.08375" lon="5.55061">
        <ele>988.9</ele>
        <time>2020-06-03T12:21:49Z</time>
      </trkpt>
      <trkpt lat="45.08386" lon="5.55065">
        <ele>987.4</ele>
        <time>2020-06-03T12:21:46Z</time>
      </trkpt>
      <trkpt lat="45.08428" lon="5.55078">
        <ele>987.4</ele>
        <time>2020-06-03T12:21:36Z</time>
      </trkpt>
      <trkpt lat="45.0845" lon="5.55077">
        <ele>987.4</ele>
        <time>2020-06-03T12:21:31Z</time>
      </trkpt>
      <trkpt lat="45.08483" lon="5.55078">
        <ele>987.4</ele>
        <time>2020-06-03T12:21:24Z</time>
      </trkpt>
      <trkpt lat="45.08488" lon="5.55078">
        <ele>987.4</ele>
        <time>2020-06-03T12:21:23Z</time>
      </trkpt>
      <trkpt lat="45.08505" lon="5.55104">
        <ele>987.4</ele>
        <time>2020-06-03T12:21:18Z</time>
      </trkpt>
      <trkpt lat="45.08507" lon="5.55121">
        <ele>987.4</ele>
        <time>2020-06-03T12:21:16Z</time>
      </trkpt>
      <trkpt lat="45.08512" lon="5.55206">
        <ele>989.8</ele>
        <time>2020-06-03T12:21:07Z</time>
      </trkpt>
      <trkpt lat="45.08517" lon="5.55239">
        <ele>990.8</ele>
        <time>2020-06-03T12:21:03Z</time>
      </trkpt>
      <trkpt lat="45.08528" lon="5.55275">
        <ele>991.7</ele>
        <time>2020-06-03T12:20:58Z</time>
      </trkpt>
      <trkpt lat="45.08531" lon="5.55302">
        <ele>992.7</ele>
        <time>2020-06-03T12:20:54Z</time>
      </trkpt>
      <trkpt lat="45.0853" lon="5.55334">
        <ele>993.2</ele>
        <time>2020-06-03T12:20:49Z</time>
      </trkpt>
      <trkpt lat="45.08528" lon="5.55353">
        <ele>993.7</ele>
        <time>2020-06-03T12:20:46Z</time>
      </trkpt>
      <trkpt lat="45.08527" lon="5.55365">
        <ele>994.1</ele>
        <time>2020-06-03T12:20:44Z</time>
      </trkpt>
      <trkpt lat="45.08524" lon="5.55385">
        <ele>994.6</ele>
        <time>2020-06-03T12:20:41Z</time>
      </trkpt>
      <trkpt lat="45.08519" lon="5.55416">
        <ele>995.6</ele>
        <time>2020-06-03T12:20:35Z</time>
      </trkpt>
      <trkpt lat="45.08518" lon="5.55432">
        <ele>995.6</ele>
        <time>2020-06-03T12:20:29Z</time>
      </trkpt>
      <trkpt lat="45.08518" lon="5.55471">
        <ele>996.1</ele>
        <time>2020-06-03T12:20:21Z</time>
      </trkpt>
      <trkpt lat="45.08527" lon="5.55483">
        <ele>996.1</ele>
        <time>2020-06-03T12:20:17Z</time>
      </trkpt>
      <trkpt lat="45.0853" lon="5.55482">
        <ele>996.5</ele>
        <time>2020-06-03T12:20:16Z</time>
      </trkpt>
      <trkpt lat="45.08576" lon="5.55473">
        <ele>996.5</ele>
        <time>2020-06-03T12:20:06Z</time>
      </trkpt>
      <trkpt lat="45.08586" lon="5.55475">
        <ele>996.5</ele>
        <time>2020-06-03T12:20:04Z</time>
      </trkpt>
      <trkpt lat="45.08625" lon="5.55485">
        <ele>997</ele>
        <time>2020-06-03T12:19:56Z</time>
      </trkpt>
      <trkpt lat="45.08651" lon="5.55495">
        <ele>997</ele>
        <time>2020-06-03T12:19:49Z</time>
      </trkpt>
      <trkpt lat="45.08693" lon="5.55509">
        <ele>997.5</ele>
        <time>2020-06-03T12:19:40Z</time>
      </trkpt>
      <trkpt lat="45.08731" lon="5.55524">
        <ele>998</ele>
        <time>2020-06-03T12:19:32Z</time>
      </trkpt>
      <trkpt lat="45.08774" lon="5.55547">
        <ele>998</ele>
        <time>2020-06-03T12:19:23Z</time>
      </trkpt>
      <trkpt lat="45.08824" lon="5.55582">
        <ele>999</ele>
        <time>2020-06-03T12:19:13Z</time>
      </trkpt>
      <trkpt lat="45.08882" lon="5.55633">
        <ele>999.9</ele>
        <time>2020-06-03T12:19:01Z</time>
      </trkpt>
      <trkpt lat="45.08925" lon="5.55672">
        <ele>999.9</ele>
        <time>2020-06-03T12:18:51Z</time>
      </trkpt>
      <trkpt lat="45.08957" lon="5.55696">
        <ele>999.9</ele>
        <time>2020-06-03T12:18:43Z</time>
      </trkpt>
      <trkpt lat="45.08972" lon="5.5571">
        <ele>999.9</ele>
        <time>2020-06-03T12:18:38Z</time>
      </trkpt>
      <trkpt lat="45.09005" lon="5.55734">
        <ele>999</ele>
        <time>2020-06-03T12:18:29Z</time>
      </trkpt>
      <trkpt lat="45.09026" lon="5.55731">
        <ele>998.5</ele>
        <time>2020-06-03T12:18:24Z</time>
      </trkpt>
      <trkpt lat="45.09056" lon="5.5571">
        <ele>998.5</ele>
        <time>2020-06-03T12:18:17Z</time>
      </trkpt>
      <trkpt lat="45.0907" lon="5.55706">
        <ele>998.5</ele>
        <time>2020-06-03T12:18:14Z</time>
      </trkpt>
      <trkpt lat="45.09106" lon="5.55714">
        <ele>998</ele>
        <time>2020-06-03T12:18:06Z</time>
      </trkpt>
      <trkpt lat="45.09144" lon="5.55734">
        <ele>997</ele>
        <time>2020-06-03T12:17:57Z</time>
      </trkpt>
      <trkpt lat="45.09148" lon="5.55736">
        <ele>997</ele>
        <time>2020-06-03T12:17:56Z</time>
      </trkpt>
      <trkpt lat="45.09169" lon="5.55719">
        <ele>997</ele>
        <time>2020-06-03T12:17:50Z</time>
      </trkpt>
      <trkpt lat="45.09176" lon="5.55713">
        <ele>997</ele>
        <time>2020-06-03T12:17:48Z</time>
      </trkpt>
      <trkpt lat="45.09215" lon="5.55683">
        <ele>997</ele>
        <time>2020-06-03T12:17:39Z</time>
      </trkpt>
      <trkpt lat="45.09249" lon="5.55647">
        <ele>997</ele>
        <time>2020-06-03T12:17:31Z</time>
      </trkpt>
      <trkpt lat="45.09273" lon="5.5563">
        <ele>997.5</ele>
        <time>2020-06-03T12:17:26Z</time>
      </trkpt>
      <trkpt lat="45.09311" lon="5.55637">
        <ele>998.5</ele>
        <time>2020-06-03T12:17:19Z</time>
      </trkpt>
      <trkpt lat="45.09317" lon="5.55638">
        <ele>998.5</ele>
        <time>2020-06-03T12:17:18Z</time>
      </trkpt>
      <trkpt lat="45.09374" lon="5.55651">
        <ele>999.9</ele>
        <time>2020-06-03T12:17:07Z</time>
      </trkpt>
      <trkpt lat="45.09418" lon="5.55667">
        <ele>999.9</ele>
        <time>2020-06-03T12:16:57Z</time>
      </trkpt>
      <trkpt lat="45.09425" lon="5.55673">
        <ele>999.4</ele>
        <time>2020-06-03T12:16:55Z</time>
      </trkpt>
      <trkpt lat="45.0945" lon="5.55711">
        <ele>998.5</ele>
        <time>2020-06-03T12:16:46Z</time>
      </trkpt>
      <trkpt lat="45.0948" lon="5.55756">
        <ele>998.5</ele>
        <time>2020-06-03T12:16:37Z</time>
      </trkpt>
      <trkpt lat="45.09525" lon="5.55803">
        <ele>998.5</ele>
        <time>2020-06-03T12:16:26Z</time>
      </trkpt>
      <trkpt lat="45.09572" lon="5.55846">
        <ele>998.5</ele>
        <time>2020-06-03T12:16:15Z</time>
      </trkpt>
      <trkpt lat="45.09613" lon="5.55882">
        <ele>999</ele>
        <time>2020-06-03T12:16:05Z</time>
      </trkpt>
      <trkpt lat="45.09653" lon="5.55917">
        <ele>999.4</ele>
        <time>2020-06-03T12:15:55Z</time>
      </trkpt>
      <trkpt lat="45.09689" lon="5.55946">
        <ele>999.9</ele>
        <time>2020-06-03T12:15:46Z</time>
      </trkpt>
      <trkpt lat="45.09729" lon="5.55982">
        <ele>1000.4</ele>
        <time>2020-06-03T12:15:36Z</time>
      </trkpt>
      <trkpt lat="45.09764" lon="5.56014">
        <ele>1000.4</ele>
        <time>2020-06-03T12:15:27Z</time>
      </trkpt>
      <trkpt lat="45.09805" lon="5.5605">
        <ele>1000.9</ele>
        <time>2020-06-03T12:15:17Z</time>
      </trkpt>
      <trkpt lat="45.09825" lon="5.56069">
        <ele>1002.3</ele>
        <time>2020-06-03T12:15:12Z</time>
      </trkpt>
      <trkpt lat="45.09861" lon="5.561">
        <ele>1002.3</ele>
        <time>2020-06-03T12:15:03Z</time>
      </trkpt>
      <trkpt lat="45.09895" lon="5.5613">
        <ele>1002.3</ele>
        <time>2020-06-03T12:14:54Z</time>
      </trkpt>
      <trkpt lat="45.09926" lon="5.56159">
        <ele>1002.3</ele>
        <time>2020-06-03T12:14:45Z</time>
      </trkpt>
      <trkpt lat="45.0996" lon="5.56188">
        <ele>1002.8</ele>
        <time>2020-06-03T12:14:35Z</time>
      </trkpt>
      <trkpt lat="45.0997" lon="5.56198">
        <ele>1002.8</ele>
        <time>2020-06-03T12:14:32Z</time>
      </trkpt>
      <trkpt lat="45.09981" lon="5.56207">
        <ele>1002.8</ele>
        <time>2020-06-03T12:14:29Z</time>
      </trkpt>
      <trkpt lat="45.1001" lon="5.56234">
        <ele>1002.8</ele>
        <time>2020-06-03T12:14:20Z</time>
      </trkpt>
      <trkpt lat="45.10039" lon="5.56258">
        <ele>1002.8</ele>
        <time>2020-06-03T12:14:11Z</time>
      </trkpt>
      <trkpt lat="45.1006" lon="5.56279">
        <ele>1002.8</ele>
        <time>2020-06-03T12:14:03Z</time>
      </trkpt>
      <trkpt lat="45.10085" lon="5.563">
        <ele>1003.3</ele>
        <time>2020-06-03T12:13:54Z</time>
      </trkpt>
      <trkpt lat="45.10096" lon="5.563">
        <ele>1003.3</ele>
        <time>2020-06-03T12:13:50Z</time>
      </trkpt>
      <trkpt lat="45.10099" lon="5.56282">
        <ele>1002.3</ele>
        <time>2020-06-03T12:13:45Z</time>
      </trkpt>
      <trkpt lat="45.10096" lon="5.56247">
        <ele>1000.9</ele>
        <time>2020-06-03T12:13:37Z</time>
      </trkpt>
      <trkpt lat="45.10082" lon="5.56205">
        <ele>1001.4</ele>
        <time>2020-06-03T12:13:28Z</time>
      </trkpt>
      <trkpt lat="45.10072" lon="5.56164">
        <ele>1001.4</ele>
        <time>2020-06-03T12:13:20Z</time>
      </trkpt>
      <trkpt lat="45.10068" lon="5.56115">
        <ele>1000.4</ele>
        <time>2020-06-03T12:13:09Z</time>
      </trkpt>
      <trkpt lat="45.10062" lon="5.56074">
        <ele>1000.4</ele>
        <time>2020-06-03T12:13:00Z</time>
      </trkpt>
      <trkpt lat="45.10059" lon="5.56064">
        <ele>1000.4</ele>
        <time>2020-06-03T12:12:58Z</time>
      </trkpt>
      <trkpt lat="45.10063" lon="5.56043">
        <ele>1000.4</ele>
        <time>2020-06-03T12:12:54Z</time>
      </trkpt>
      <trkpt lat="45.10076" lon="5.56024">
        <ele>1001.4</ele>
        <time>2020-06-03T12:12:49Z</time>
      </trkpt>
      <trkpt lat="45.10103" lon="5.56042">
        <ele>1001.4</ele>
        <time>2020-06-03T12:12:42Z</time>
      </trkpt>
      <trkpt lat="45.10122" lon="5.56048">
        <ele>1001.8</ele>
        <time>2020-06-03T12:12:38Z</time>
      </trkpt>
      <trkpt lat="45.10142" lon="5.56059">
        <ele>1002.3</ele>
        <time>2020-06-03T12:12:33Z</time>
      </trkpt>
      <trkpt lat="45.10168" lon="5.56072">
        <ele>1002.3</ele>
        <time>2020-06-03T12:12:26Z</time>
      </trkpt>
      <trkpt lat="45.10192" lon="5.56084">
        <ele>1002.8</ele>
        <time>2020-06-03T12:12:19Z</time>
      </trkpt>
      <trkpt lat="45.10202" lon="5.56081">
        <ele>1004.7</ele>
        <time>2020-06-03T12:12:16Z</time>
      </trkpt>
      <trkpt lat="45.10218" lon="5.56081">
        <ele>1007.1</ele>
        <time>2020-06-03T12:12:12Z</time>
      </trkpt>
      <trkpt lat="45.10223" lon="5.56081">
        <ele>1007.6</ele>
        <time>2020-06-03T12:12:11Z</time>
      </trkpt>
      <trkpt lat="45.10247" lon="5.56075">
        <ele>1011.9</ele>
        <time>2020-06-03T12:12:07Z</time>
      </trkpt>
      <trkpt lat="45.10256" lon="5.56059">
        <ele>1014.8</ele>
        <time>2020-06-03T12:12:04Z</time>
      </trkpt>
      <trkpt lat="45.10254" lon="5.56034">
        <ele>1018.2</ele>
        <time>2020-06-03T12:12:01Z</time>
      </trkpt>
      <trkpt lat="45.10241" lon="5.5601">
        <ele>1021.1</ele>
        <time>2020-06-03T12:11:58Z</time>
      </trkpt>
      <trkpt lat="45.10227" lon="5.55968">
        <ele>1027.3</ele>
        <time>2020-06-03T12:11:53Z</time>
      </trkpt>
      <trkpt lat="45.10237" lon="5.55935">
        <ele>1031.6</ele>
        <time>2020-06-03T12:11:48Z</time>
      </trkpt>
      <trkpt lat="45.10244" lon="5.55926">
        <ele>1033.1</ele>
        <time>2020-06-03T12:11:45Z</time>
      </trkpt>
      <trkpt lat="45.10257" lon="5.55905">
        <ele>1033.1</ele>
        <time>2020-06-03T12:11:37Z</time>
      </trkpt>
      <trkpt lat="45.10266" lon="5.55885">
        <ele>1033.1</ele>
        <time>2020-06-03T12:11:29Z</time>
      </trkpt>
      <trkpt lat="45.10271" lon="5.55874">
        <ele>1033.1</ele>
        <time>2020-06-03T12:11:23Z</time>
      </trkpt>
      <trkpt lat="45.10281" lon="5.55858">
        <ele>1033.6</ele>
        <time>2020-06-03T12:11:15Z</time>
      </trkpt>
      <trkpt lat="45.10292" lon="5.55847">
        <ele>1033.1</ele>
        <time>2020-06-03T12:11:06Z</time>
      </trkpt>
      <trkpt lat="45.10301" lon="5.55847">
        <ele>1031.6</ele>
        <time>2020-06-03T12:11:02Z</time>
      </trkpt>
      <trkpt lat="45.10313" lon="5.55849">
        <ele>1029.2</ele>
        <time>2020-06-03T12:10:59Z</time>
      </trkpt>
      <trkpt lat="45.10357" lon="5.55861">
        <ele>1031.6</ele>
        <time>2020-06-03T12:10:52Z</time>
      </trkpt>
      <trkpt lat="45.1037" lon="5.55867">
        <ele>1034.5</ele>
        <time>2020-06-03T12:10:49Z</time>
      </trkpt>
      <trkpt lat="45.1037" lon="5.55876">
        <ele>1036.9</ele>
        <time>2020-06-03T12:10:46Z</time>
      </trkpt>
      <trkpt lat="45.10361" lon="5.55896">
        <ele>1039.8</ele>
        <time>2020-06-03T12:10:42Z</time>
      </trkpt>
      <trkpt lat="45.10372" lon="5.55911">
        <ele>1043.7</ele>
        <time>2020-06-03T12:10:38Z</time>
      </trkpt>
      <trkpt lat="45.10377" lon="5.55911">
        <ele>1044.6</ele>
        <time>2020-06-03T12:10:37Z</time>
      </trkpt>
      <trkpt lat="45.10398" lon="5.55918">
        <ele>1048</ele>
        <time>2020-06-03T12:10:33Z</time>
      </trkpt>
      <trkpt lat="45.10411" lon="5.55928">
        <ele>1050.9</ele>
        <time>2020-06-03T12:10:30Z</time>
      </trkpt>
      <trkpt lat="45.10432" lon="5.55933">
        <ele>1054.2</ele>
        <time>2020-06-03T12:10:26Z</time>
      </trkpt>
      <trkpt lat="45.10452" lon="5.55934">
        <ele>1057.6</ele>
        <time>2020-06-03T12:10:22Z</time>
      </trkpt>
      <trkpt lat="45.10477" lon="5.55928">
        <ele>1061.9</ele>
        <time>2020-06-03T12:10:18Z</time>
      </trkpt>
      <trkpt lat="45.1049" lon="5.55928">
        <ele>1063.8</ele>
        <time>2020-06-03T12:10:16Z</time>
      </trkpt>
      <trkpt lat="45.10517" lon="5.55925">
        <ele>1069.1</ele>
        <time>2020-06-03T12:10:12Z</time>
      </trkpt>
      <trkpt lat="45.10533" lon="5.55926">
        <ele>1071.1</ele>
        <time>2020-06-03T12:10:10Z</time>
      </trkpt>
      <trkpt lat="45.10548" lon="5.55924">
        <ele>1073.5</ele>
        <time>2020-06-03T12:10:08Z</time>
      </trkpt>
      <trkpt lat="45.10586" lon="5.55924">
        <ele>1077.8</ele>
        <time>2020-06-03T12:10:02Z</time>
      </trkpt>
      <trkpt lat="45.10611" lon="5.55925">
        <ele>1080.7</ele>
        <time>2020-06-03T12:09:58Z</time>
      </trkpt>
      <trkpt lat="45.10648" lon="5.55905">
        <ele>1085.5</ele>
        <time>2020-06-03T12:09:52Z</time>
      </trkpt>
      <trkpt lat="45.10672" lon="5.55894">
        <ele>1087.9</ele>
        <time>2020-06-03T12:09:48Z</time>
      </trkpt>
      <trkpt lat="45.10709" lon="5.55903">
        <ele>1092.7</ele>
        <time>2020-06-03T12:09:43Z</time>
      </trkpt>
      <trkpt lat="45.1073" lon="5.55909">
        <ele>1095.1</ele>
        <time>2020-06-03T12:09:40Z</time>
      </trkpt>
      <trkpt lat="45.10743" lon="5.55909">
        <ele>1095.6</ele>
        <time>2020-06-03T12:09:38Z</time>
      </trkpt>
      <trkpt lat="45.10762" lon="5.55903">
        <ele>1097.5</ele>
        <time>2020-06-03T12:09:35Z</time>
      </trkpt>
      <trkpt lat="45.10776" lon="5.55902">
        <ele>1098.9</ele>
        <time>2020-06-03T12:09:33Z</time>
      </trkpt>
      <trkpt lat="45.1081" lon="5.55899">
        <ele>1101.3</ele>
        <time>2020-06-03T12:09:27Z</time>
      </trkpt>
      <trkpt lat="45.10816" lon="5.55898">
        <ele>1101.3</ele>
        <time>2020-06-03T12:09:26Z</time>
      </trkpt>
      <trkpt lat="45.10841" lon="5.55891">
        <ele>1101.8</ele>
        <time>2020-06-03T12:09:21Z</time>
      </trkpt>
      <trkpt lat="45.10853" lon="5.55888">
        <ele>1101.8</ele>
        <time>2020-06-03T12:09:19Z</time>
      </trkpt>
      <trkpt lat="45.10874" lon="5.55882">
        <ele>1102.8</ele>
        <time>2020-06-03T12:09:16Z</time>
      </trkpt>
      <trkpt lat="45.10898" lon="5.55881">
        <ele>1103.3</ele>
        <time>2020-06-03T12:09:13Z</time>
      </trkpt>
      <trkpt lat="45.10946" lon="5.55886">
        <ele>1107.1</ele>
        <time>2020-06-03T12:09:06Z</time>
      </trkpt>
      <trkpt lat="45.10962" lon="5.55889">
        <ele>1108.1</ele>
        <time>2020-06-03T12:09:03Z</time>
      </trkpt>
      <trkpt lat="45.10981" lon="5.55888">
        <ele>1108.1</ele>
        <time>2020-06-03T12:08:59Z</time>
      </trkpt>
      <trkpt lat="45.10998" lon="5.55887">
        <ele>1106.6</ele>
        <time>2020-06-03T12:08:55Z</time>
      </trkpt>
      <trkpt lat="45.1103" lon="5.55891">
        <ele>1106.6</ele>
        <time>2020-06-03T12:08:48Z</time>
      </trkpt>
      <trkpt lat="45.11052" lon="5.55899">
        <ele>1107.1</ele>
        <time>2020-06-03T12:08:44Z</time>
      </trkpt>
      <trkpt lat="45.11071" lon="5.55908">
        <ele>1108.1</ele>
        <time>2020-06-03T12:08:40Z</time>
      </trkpt>
      <trkpt lat="45.11083" lon="5.55912">
        <ele>1108.1</ele>
        <time>2020-06-03T12:08:37Z</time>
      </trkpt>
      <trkpt lat="45.11105" lon="5.55915">
        <ele>1108.1</ele>
        <time>2020-06-03T12:08:31Z</time>
      </trkpt>
      <trkpt lat="45.11134" lon="5.55919">
        <ele>1108.5</ele>
        <time>2020-06-03T12:08:25Z</time>
      </trkpt>
      <trkpt lat="45.1115" lon="5.55929">
        <ele>1111.9</ele>
        <time>2020-06-03T12:08:21Z</time>
      </trkpt>
      <trkpt lat="45.11154" lon="5.55931">
        <ele>1111.9</ele>
        <time>2020-06-03T12:08:20Z</time>
      </trkpt>
      <trkpt lat="45.11187" lon="5.55945">
        <ele>1116.2</ele>
        <time>2020-06-03T12:08:14Z</time>
      </trkpt>
      <trkpt lat="45.11219" lon="5.55954">
        <ele>1117.7</ele>
        <time>2020-06-03T12:08:09Z</time>
      </trkpt>
      <trkpt lat="45.11242" lon="5.55973">
        <ele>1122.5</ele>
        <time>2020-06-03T12:08:05Z</time>
      </trkpt>
      <trkpt lat="45.11257" lon="5.55981">
        <ele>1124.9</ele>
        <time>2020-06-03T12:08:02Z</time>
      </trkpt>
      <trkpt lat="45.1127" lon="5.55987">
        <ele>1126.3</ele>
        <time>2020-06-03T12:07:59Z</time>
      </trkpt>
      <trkpt lat="45.11283" lon="5.55993">
        <ele>1126.3</ele>
        <time>2020-06-03T12:07:55Z</time>
      </trkpt>
      <trkpt lat="45.11286" lon="5.55995">
        <ele>1126.3</ele>
        <time>2020-06-03T12:07:53Z</time>
      </trkpt>
      <trkpt lat="45.11289" lon="5.55997">
        <ele>1126.3</ele>
        <time>2020-06-03T12:07:46Z</time>
      </trkpt>
      <trkpt lat="45.11295" lon="5.56001">
        <ele>1125.8</ele>
        <time>2020-06-03T12:07:41Z</time>
      </trkpt>
      <trkpt lat="45.11308" lon="5.56009">
        <ele>1123.4</ele>
        <time>2020-06-03T12:07:38Z</time>
      </trkpt>
      <trkpt lat="45.11344" lon="5.56031">
        <ele>1126.3</ele>
        <time>2020-06-03T12:07:33Z</time>
      </trkpt>
      <trkpt lat="45.11369" lon="5.56042">
        <ele>1128.7</ele>
        <time>2020-06-03T12:07:30Z</time>
      </trkpt>
      <trkpt lat="45.11387" lon="5.56047">
        <ele>1130.7</ele>
        <time>2020-06-03T12:07:28Z</time>
      </trkpt>
      <trkpt lat="45.11414" lon="5.56059">
        <ele>1134.5</ele>
        <time>2020-06-03T12:07:25Z</time>
      </trkpt>
      <trkpt lat="45.11445" lon="5.5608">
        <ele>1137.9</ele>
        <time>2020-06-03T12:07:21Z</time>
      </trkpt>
      <trkpt lat="45.11481" lon="5.56099">
        <ele>1141.2</ele>
        <time>2020-06-03T12:07:16Z</time>
      </trkpt>
      <trkpt lat="45.11498" lon="5.56114">
        <ele>1142.7</ele>
        <time>2020-06-03T12:07:13Z</time>
      </trkpt>
      <trkpt lat="45.11524" lon="5.56147">
        <ele>1144.1</ele>
        <time>2020-06-03T12:07:08Z</time>
      </trkpt>
      <trkpt lat="45.11554" lon="5.56164">
        <ele>1147</ele>
        <time>2020-06-03T12:07:04Z</time>
      </trkpt>
      <trkpt lat="45.11562" lon="5.56167">
        <ele>1148</ele>
        <time>2020-06-03T12:07:03Z</time>
      </trkpt>
      <trkpt lat="45.11611" lon="5.56179">
        <ele>1152.3</ele>
        <time>2020-06-03T12:06:57Z</time>
      </trkpt>
      <trkpt lat="45.11644" lon="5.56176">
        <ele>1154.7</ele>
        <time>2020-06-03T12:06:52Z</time>
      </trkpt>
      <trkpt lat="45.11669" lon="5.56158">
        <ele>1156.6</ele>
        <time>2020-06-03T12:06:48Z</time>
      </trkpt>
      <trkpt lat="45.11674" lon="5.56151">
        <ele>1157.1</ele>
        <time>2020-06-03T12:06:47Z</time>
      </trkpt>
      <trkpt lat="45.11693" lon="5.56128">
        <ele>1160.5</ele>
        <time>2020-06-03T12:06:44Z</time>
      </trkpt>
      <trkpt lat="45.11721" lon="5.56099">
        <ele>1165.3</ele>
        <time>2020-06-03T12:06:41Z</time>
      </trkpt>
      <trkpt lat="45.1175" lon="5.56072">
        <ele>1169.1</ele>
        <time>2020-06-03T12:06:38Z</time>
      </trkpt>
      <trkpt lat="45.11776" lon="5.56051">
        <ele>1173.4</ele>
        <time>2020-06-03T12:06:35Z</time>
      </trkpt>
      <trkpt lat="45.11807" lon="5.56035">
        <ele>1176.8</ele>
        <time>2020-06-03T12:06:30Z</time>
      </trkpt>
      <trkpt lat="45.11824" lon="5.56029">
        <ele>1178.7</ele>
        <time>2020-06-03T12:06:25Z</time>
      </trkpt>
      <trkpt lat="45.11846" lon="5.56023">
        <ele>1181.1</ele>
        <time>2020-06-03T12:06:18Z</time>
      </trkpt>
      <trkpt lat="45.11863" lon="5.5602">
        <ele>1183.5</ele>
        <time>2020-06-03T12:06:14Z</time>
      </trkpt>
      <trkpt lat="45.11898" lon="5.56005">
        <ele>1187.4</ele>
        <time>2020-06-03T12:06:09Z</time>
      </trkpt>
      <trkpt lat="45.11936" lon="5.55983">
        <ele>1191.7</ele>
        <time>2020-06-03T12:06:03Z</time>
      </trkpt>
      <trkpt lat="45.11957" lon="5.55967">
        <ele>1194.1</ele>
        <time>2020-06-03T12:06:00Z</time>
      </trkpt>
      <trkpt lat="45.11979" lon="5.55953">
        <ele>1196</ele>
        <time>2020-06-03T12:05:57Z</time>
      </trkpt>
      <trkpt lat="45.12005" lon="5.55932">
        <ele>1197.5</ele>
        <time>2020-06-03T12:05:53Z</time>
      </trkpt>
      <trkpt lat="45.12024" lon="5.55915">
        <ele>1199.4</ele>
        <time>2020-06-03T12:05:50Z</time>
      </trkpt>
      <trkpt lat="45.12045" lon="5.55884">
        <ele>1201.3</ele>
        <time>2020-06-03T12:05:45Z</time>
      </trkpt>
      <trkpt lat="45.12048" lon="5.5587">
        <ele>1201.8</ele>
        <time>2020-06-03T12:05:43Z</time>
      </trkpt>
      <trkpt lat="45.12049" lon="5.55863">
        <ele>1202.8</ele>
        <time>2020-06-03T12:05:42Z</time>
      </trkpt>
      <trkpt lat="45.12054" lon="5.55836">
        <ele>1203.7</ele>
        <time>2020-06-03T12:05:36Z</time>
      </trkpt>
      <trkpt lat="45.12055" lon="5.55832">
        <ele>1204.2</ele>
        <time>2020-06-03T12:05:34Z</time>
      </trkpt>
      <trkpt lat="45.12056" lon="5.5582">
        <ele>1204.2</ele>
        <time>2020-06-03T12:05:27Z</time>
      </trkpt>
      <trkpt lat="45.12056" lon="5.55819">
        <ele>1204.2</ele>
        <time>2020-06-03T12:05:25Z</time>
      </trkpt>
      <trkpt lat="45.12056" lon="5.55817">
        <ele>1204.2</ele>
        <time>2020-06-03T12:05:14Z</time>
      </trkpt>
      <trkpt lat="45.12061" lon="5.5581">
        <ele>1205.2</ele>
        <time>2020-06-03T12:05:07Z</time>
      </trkpt>
      <trkpt lat="45.12075" lon="5.55785">
        <ele>1205.2</ele>
        <time>2020-06-03T12:05:01Z</time>
      </trkpt>
      <trkpt lat="45.12088" lon="5.55774">
        <ele>1205.6</ele>
        <time>2020-06-03T12:04:57Z</time>
      </trkpt>
      <trkpt lat="45.12104" lon="5.55756">
        <ele>1204.7</ele>
        <time>2020-06-03T12:04:50Z</time>
      </trkpt>
      <trkpt lat="45.12114" lon="5.55736">
        <ele>1204.2</ele>
        <time>2020-06-03T12:04:43Z</time>
      </trkpt>
      <trkpt lat="45.12118" lon="5.55723">
        <ele>1202.8</ele>
        <time>2020-06-03T12:04:39Z</time>
      </trkpt>
      <trkpt lat="45.1213" lon="5.55704">
        <ele>1203.7</ele>
        <time>2020-06-03T12:04:34Z</time>
      </trkpt>
      <trkpt lat="45.12146" lon="5.55693">
        <ele>1204.2</ele>
        <time>2020-06-03T12:04:28Z</time>
      </trkpt>
      <trkpt lat="45.12161" lon="5.5568">
        <ele>1202.3</ele>
        <time>2020-06-03T12:04:20Z</time>
      </trkpt>
      <trkpt lat="45.12172" lon="5.55662">
        <ele>1200.8</ele>
        <time>2020-06-03T12:04:14Z</time>
      </trkpt>
      <trkpt lat="45.12174" lon="5.55661">
        <ele>1200.8</ele>
        <time>2020-06-03T12:04:13Z</time>
      </trkpt>
      <trkpt lat="45.12176" lon="5.55658">
        <ele>1200.8</ele>
        <time>2020-06-03T12:04:12Z</time>
      </trkpt>
      <trkpt lat="45.12205" lon="5.55625">
        <ele>1199.9</ele>
        <time>2020-06-03T12:04:03Z</time>
      </trkpt>
      <trkpt lat="45.1224" lon="5.55607">
        <ele>1200.3</ele>
        <time>2020-06-03T12:03:56Z</time>
      </trkpt>
      <trkpt lat="45.12256" lon="5.55604">
        <ele>1201.3</ele>
        <time>2020-06-03T12:03:52Z</time>
      </trkpt>
      <trkpt lat="45.12277" lon="5.55593">
        <ele>1202.3</ele>
        <time>2020-06-03T12:03:44Z</time>
      </trkpt>
      <trkpt lat="45.12294" lon="5.5557">
        <ele>1204.2</ele>
        <time>2020-06-03T12:03:39Z</time>
      </trkpt>
      <trkpt lat="45.12309" lon="5.5555">
        <ele>1205.6</ele>
        <time>2020-06-03T12:03:36Z</time>
      </trkpt>
      <trkpt lat="45.12319" lon="5.55535">
        <ele>1207.1</ele>
        <time>2020-06-03T12:03:34Z</time>
      </trkpt>
      <trkpt lat="45.12335" lon="5.55503">
        <ele>1209</ele>
        <time>2020-06-03T12:03:30Z</time>
      </trkpt>
      <trkpt lat="45.12342" lon="5.55469">
        <ele>1211.9</ele>
        <time>2020-06-03T12:03:26Z</time>
      </trkpt>
      <trkpt lat="45.12359" lon="5.55419">
        <ele>1215.7</ele>
        <time>2020-06-03T12:03:20Z</time>
      </trkpt>
      <trkpt lat="45.12372" lon="5.55394">
        <ele>1218.1</ele>
        <time>2020-06-03T12:03:17Z</time>
      </trkpt>
      <trkpt lat="45.12393" lon="5.5536">
        <ele>1221.5</ele>
        <time>2020-06-03T12:03:13Z</time>
      </trkpt>
      <trkpt lat="45.12415" lon="5.55327">
        <ele>1225.3</ele>
        <time>2020-06-03T12:03:09Z</time>
      </trkpt>
      <trkpt lat="45.12439" lon="5.55295">
        <ele>1228.7</ele>
        <time>2020-06-03T12:03:05Z</time>
      </trkpt>
      <trkpt lat="45.12464" lon="5.5526">
        <ele>1235</ele>
        <time>2020-06-03T12:03:00Z</time>
      </trkpt>
      <trkpt lat="45.12475" lon="5.55235">
        <ele>1239.3</ele>
        <time>2020-06-03T12:02:56Z</time>
      </trkpt>
      <trkpt lat="45.12483" lon="5.55209">
        <ele>1241.2</ele>
        <time>2020-06-03T12:02:51Z</time>
      </trkpt>
      <trkpt lat="45.12489" lon="5.55193">
        <ele>1241.2</ele>
        <time>2020-06-03T12:02:45Z</time>
      </trkpt>
      <trkpt lat="45.12491" lon="5.55182">
        <ele>1240.7</ele>
        <time>2020-06-03T12:02:37Z</time>
      </trkpt>
      <trkpt lat="45.12491" lon="5.55177">
        <ele>1240.7</ele>
        <time>2020-06-03T12:02:33Z</time>
      </trkpt>
      <trkpt lat="45.1249" lon="5.55173">
        <ele>1240.7</ele>
        <time>2020-06-03T12:02:29Z</time>
      </trkpt>
      <trkpt lat="45.12485" lon="5.55171">
        <ele>1240.7</ele>
        <time>2020-06-03T12:02:23Z</time>
      </trkpt>
      <trkpt lat="45.12484" lon="5.55171">
        <ele>1240.7</ele>
        <time>2020-06-03T12:02:18Z</time>
      </trkpt>
      <trkpt lat="45.12486" lon="5.55171">
        <ele>1240.7</ele>
        <time>2020-06-03T12:02:04Z</time>
      </trkpt>
      <trkpt lat="45.12484" lon="5.55171">
        <ele>1240.7</ele>
        <time>2020-06-03T12:01:47Z</time>
      </trkpt>
      <trkpt lat="45.12483" lon="5.55174">
        <ele>1240.7</ele>
        <time>2020-06-03T12:01:25Z</time>
      </trkpt>
      <trkpt lat="45.12481" lon="5.55178">
        <ele>1240.7</ele>
        <time>2020-06-03T12:01:17Z</time>
      </trkpt>
      <trkpt lat="45.1248" lon="5.55178">
        <ele>1240.7</ele>
        <time>2020-06-03T12:00:58Z</time>
      </trkpt>
      <trkpt lat="45.12485" lon="5.55177">
        <ele>1240.2</ele>
        <time>2020-06-03T12:00:39Z</time>
      </trkpt>
      <trkpt lat="45.12484" lon="5.55177">
        <ele>1240.2</ele>
        <time>2020-06-03T12:00:20Z</time>
      </trkpt>
      <trkpt lat="45.12478" lon="5.55176">
        <ele>1240.2</ele>
        <time>2020-06-03T11:59:56Z</time>
      </trkpt>
      <trkpt lat="45.12474" lon="5.55177">
        <ele>1240.2</ele>
        <time>2020-06-03T11:59:38Z</time>
      </trkpt>
      <trkpt lat="45.12478" lon="5.55172">
        <ele>1240.2</ele>
        <time>2020-06-03T11:59:11Z</time>
      </trkpt>
      <trkpt lat="45.12481" lon="5.5517">
        <ele>1240.2</ele>
        <time>2020-06-03T11:58:55Z</time>
      </trkpt>
      <trkpt lat="45.12484" lon="5.55172">
        <ele>1240.2</ele>
        <time>2020-06-03T11:58:35Z</time>
      </trkpt>
      <trkpt lat="45.1248" lon="5.55177">
        <ele>1240.2</ele>
        <time>2020-06-03T11:58:12Z</time>
      </trkpt>
      <trkpt lat="45.12486" lon="5.55176">
        <ele>1240.2</ele>
        <time>2020-06-03T11:57:52Z</time>
      </trkpt>
      <trkpt lat="45.12481" lon="5.55172">
        <ele>1240.2</ele>
        <time>2020-06-03T11:57:26Z</time>
      </trkpt>
      <trkpt lat="45.12485" lon="5.55169">
        <ele>1240.2</ele>
        <time>2020-06-03T11:57:05Z</time>
      </trkpt>
      <trkpt lat="45.12487" lon="5.55177">
        <ele>1240.2</ele>
        <time>2020-06-03T11:56:44Z</time>
      </trkpt>
      <trkpt lat="45.12489" lon="5.55172">
        <ele>1241.2</ele>
        <time>2020-06-03T11:56:15Z</time>
      </trkpt>
      <trkpt lat="45.1249" lon="5.55169">
        <ele>1241.2</ele>
        <time>2020-06-03T11:55:48Z</time>
      </trkpt>
      <trkpt lat="45.12493" lon="5.55166">
        <ele>1241.2</ele>
        <time>2020-06-03T11:55:12Z</time>
      </trkpt>
      <trkpt lat="45.12491" lon="5.55168">
        <ele>1240.7</ele>
        <time>2020-06-03T11:54:52Z</time>
      </trkpt>
      <trkpt lat="45.12486" lon="5.55169">
        <ele>1240.7</ele>
        <time>2020-06-03T11:54:30Z</time>
      </trkpt>
      <trkpt lat="45.12484" lon="5.55175">
        <ele>1240.7</ele>
        <time>2020-06-03T11:54:09Z</time>
      </trkpt>
      <trkpt lat="45.12484" lon="5.55172">
        <ele>1240.7</ele>
        <time>2020-06-03T11:53:42Z</time>
      </trkpt>
      <trkpt lat="45.1248" lon="5.55175">
        <ele>1240.7</ele>
        <time>2020-06-03T11:53:15Z</time>
      </trkpt>
      <trkpt lat="45.1248" lon="5.55168">
        <ele>1240.7</ele>
        <time>2020-06-03T11:52:52Z</time>
      </trkpt>
      <trkpt lat="45.1248" lon="5.55171">
        <ele>1240.7</ele>
        <time>2020-06-03T11:52:26Z</time>
      </trkpt>
      <trkpt lat="45.12483" lon="5.55168">
        <ele>1240.7</ele>
        <time>2020-06-03T11:51:58Z</time>
      </trkpt>
      <trkpt lat="45.1248" lon="5.55169">
        <ele>1241.2</ele>
        <time>2020-06-03T11:51:35Z</time>
      </trkpt>
      <trkpt lat="45.1248" lon="5.55172">
        <ele>1241.2</ele>
        <time>2020-06-03T11:51:14Z</time>
      </trkpt>
      <trkpt lat="45.1248" lon="5.5517">
        <ele>1241.2</ele>
        <time>2020-06-03T11:50:51Z</time>
      </trkpt>
      <trkpt lat="45.12479" lon="5.55172">
        <ele>1241.2</ele>
        <time>2020-06-03T11:50:27Z</time>
      </trkpt>
      <trkpt lat="45.12481" lon="5.55176">
        <ele>1241.2</ele>
        <time>2020-06-03T11:50:09Z</time>
      </trkpt>
      <trkpt lat="45.12486" lon="5.55171">
        <ele>1240.7</ele>
        <time>2020-06-03T11:49:47Z</time>
      </trkpt>
      <trkpt lat="45.12488" lon="5.55171">
        <ele>1240.2</ele>
        <time>2020-06-03T11:49:28Z</time>
      </trkpt>
      <trkpt lat="45.12485" lon="5.55174">
        <ele>1240.2</ele>
        <time>2020-06-03T11:49:04Z</time>
      </trkpt>
      <trkpt lat="45.1248" lon="5.55176">
        <ele>1240.2</ele>
        <time>2020-06-03T11:48:43Z</time>
      </trkpt>
      <trkpt lat="45.12481" lon="5.55175">
        <ele>1240.2</ele>
        <time>2020-06-03T11:48:30Z</time>
      </trkpt>
      <trkpt lat="45.12483" lon="5.55169">
        <ele>1240.2</ele>
        <time>2020-06-03T11:48:09Z</time>
      </trkpt>
      <trkpt lat="45.12486" lon="5.5517">
        <ele>1239.8</ele>
        <time>2020-06-03T11:47:46Z</time>
      </trkpt>
      <trkpt lat="45.12484" lon="5.55173">
        <ele>1239.8</ele>
        <time>2020-06-03T11:47:27Z</time>
      </trkpt>
      <trkpt lat="45.12486" lon="5.55171">
        <ele>1239.8</ele>
        <time>2020-06-03T11:47:13Z</time>
      </trkpt>
      <trkpt lat="45.12481" lon="5.55175">
        <ele>1239.3</ele>
        <time>2020-06-03T11:46:51Z</time>
      </trkpt>
      <trkpt lat="45.12482" lon="5.55171">
        <ele>1239.3</ele>
        <time>2020-06-03T11:46:37Z</time>
      </trkpt>
      <trkpt lat="45.12486" lon="5.55171">
        <ele>1239.3</ele>
        <time>2020-06-03T11:46:30Z</time>
      </trkpt>
      <trkpt lat="45.12485" lon="5.55169">
        <ele>1239.3</ele>
        <time>2020-06-03T11:46:19Z</time>
      </trkpt>
      <trkpt lat="45.12488" lon="5.55167">
        <ele>1238.8</ele>
        <time>2020-06-03T11:46:14Z</time>
      </trkpt>
      <trkpt lat="45.12497" lon="5.55153">
        <ele>1238.8</ele>
        <time>2020-06-03T11:46:06Z</time>
      </trkpt>
      <trkpt lat="45.12504" lon="5.55138">
        <ele>1237.8</ele>
        <time>2020-06-03T11:45:58Z</time>
      </trkpt>
      <trkpt lat="45.12512" lon="5.55123">
        <ele>1236.9</ele>
        <time>2020-06-03T11:45:50Z</time>
      </trkpt>
      <trkpt lat="45.12523" lon="5.55101">
        <ele>1235.4</ele>
        <time>2020-06-03T11:45:40Z</time>
      </trkpt>
      <trkpt lat="45.12527" lon="5.55093">
        <ele>1235</ele>
        <time>2020-06-03T11:45:36Z</time>
      </trkpt>
      <trkpt lat="45.12533" lon="5.55084">
        <ele>1234</ele>
        <time>2020-06-03T11:45:30Z</time>
      </trkpt>
      <trkpt lat="45.1254" lon="5.55073">
        <ele>1233</ele>
        <time>2020-06-03T11:45:22Z</time>
      </trkpt>
      <trkpt lat="45.12543" lon="5.55068">
        <ele>1232.6</ele>
        <time>2020-06-03T11:45:18Z</time>
      </trkpt>
      <trkpt lat="45.1255" lon="5.55059">
        <ele>1231.1</ele>
        <time>2020-06-03T11:45:10Z</time>
      </trkpt>
      <trkpt lat="45.1256" lon="5.55049">
        <ele>1229.7</ele>
        <time>2020-06-03T11:45:00Z</time>
      </trkpt>
      <trkpt lat="45.12562" lon="5.55045">
        <ele>1229.2</ele>
        <time>2020-06-03T11:44:58Z</time>
      </trkpt>
      <trkpt lat="45.12564" lon="5.55041">
        <ele>1228.7</ele>
        <time>2020-06-03T11:44:55Z</time>
      </trkpt>
      <trkpt lat="45.12572" lon="5.55033">
        <ele>1227.7</ele>
        <time>2020-06-03T11:44:48Z</time>
      </trkpt>
      <trkpt lat="45.12575" lon="5.55028">
        <ele>1227.3</ele>
        <time>2020-06-03T11:44:44Z</time>
      </trkpt>
      <trkpt lat="45.12581" lon="5.5502">
        <ele>1226.8</ele>
        <time>2020-06-03T11:44:38Z</time>
      </trkpt>
      <trkpt lat="45.12587" lon="5.55013">
        <ele>1225.8</ele>
        <time>2020-06-03T11:44:32Z</time>
      </trkpt>
      <trkpt lat="45.12591" lon="5.55008">
        <ele>1225.3</ele>
        <time>2020-06-03T11:44:28Z</time>
      </trkpt>
      <trkpt lat="45.12594" lon="5.55005">
        <ele>1224.9</ele>
        <time>2020-06-03T11:44:25Z</time>
      </trkpt>
      <trkpt lat="45.12604" lon="5.54997">
        <ele>1223.4</ele>
        <time>2020-06-03T11:44:16Z</time>
      </trkpt>
      <trkpt lat="45.12609" lon="5.54995">
        <ele>1222.9</ele>
        <time>2020-06-03T11:44:11Z</time>
      </trkpt>
      <trkpt lat="45.12618" lon="5.54993">
        <ele>1222</ele>
        <time>2020-06-03T11:44:03Z</time>
      </trkpt>
      <trkpt lat="45.1263" lon="5.54993">
        <ele>1219.6</ele>
        <time>2020-06-03T11:43:53Z</time>
      </trkpt>
      <trkpt lat="45.12636" lon="5.54995">
        <ele>1219.1</ele>
        <time>2020-06-03T11:43:49Z</time>
      </trkpt>
      <trkpt lat="45.12643" lon="5.54992">
        <ele>1218.1</ele>
        <time>2020-06-03T11:43:43Z</time>
      </trkpt>
      <trkpt lat="45.12652" lon="5.54988">
        <ele>1217.2</ele>
        <time>2020-06-03T11:43:36Z</time>
      </trkpt>
      <trkpt lat="45.12656" lon="5.54986">
        <ele>1217.2</ele>
        <time>2020-06-03T11:43:33Z</time>
      </trkpt>
      <trkpt lat="45.12668" lon="5.54983">
        <ele>1215.7</ele>
        <time>2020-06-03T11:43:24Z</time>
      </trkpt>
      <trkpt lat="45.12673" lon="5.54982">
        <ele>1215.2</ele>
        <time>2020-06-03T11:43:20Z</time>
      </trkpt>
      <trkpt lat="45.12676" lon="5.54981">
        <ele>1214.8</ele>
        <time>2020-06-03T11:43:18Z</time>
      </trkpt>
      <trkpt lat="45.12684" lon="5.54975">
        <ele>1213.8</ele>
        <time>2020-06-03T11:43:11Z</time>
      </trkpt>
      <trkpt lat="45.12695" lon="5.54972">
        <ele>1212.8</ele>
        <time>2020-06-03T11:43:02Z</time>
      </trkpt>
      <trkpt lat="45.12697" lon="5.54971">
        <ele>1212.4</ele>
        <time>2020-06-03T11:43:00Z</time>
      </trkpt>
      <trkpt lat="45.12703" lon="5.54972">
        <ele>1211.9</ele>
        <time>2020-06-03T11:42:56Z</time>
      </trkpt>
      <trkpt lat="45.12715" lon="5.54971">
        <ele>1210.9</ele>
        <time>2020-06-03T11:42:48Z</time>
      </trkpt>
      <trkpt lat="45.12726" lon="5.54971">
        <ele>1210</ele>
        <time>2020-06-03T11:42:38Z</time>
      </trkpt>
      <trkpt lat="45.12734" lon="5.54973">
        <ele>1209</ele>
        <time>2020-06-03T11:42:30Z</time>
      </trkpt>
      <trkpt lat="45.12738" lon="5.54976">
        <ele>1208.5</ele>
        <time>2020-06-03T11:42:26Z</time>
      </trkpt>
      <trkpt lat="45.12746" lon="5.54989">
        <ele>1206.6</ele>
        <time>2020-06-03T11:42:16Z</time>
      </trkpt>
      <trkpt lat="45.12747" lon="5.5499">
        <ele>1206.6</ele>
        <time>2020-06-03T11:42:15Z</time>
      </trkpt>
      <trkpt lat="45.1275" lon="5.55">
        <ele>1205.2</ele>
        <time>2020-06-03T11:42:07Z</time>
      </trkpt>
      <trkpt lat="45.12754" lon="5.55007">
        <ele>1203.7</ele>
        <time>2020-06-03T11:41:59Z</time>
      </trkpt>
      <trkpt lat="45.12766" lon="5.55003">
        <ele>1202.3</ele>
        <time>2020-06-03T11:41:50Z</time>
      </trkpt>
      <trkpt lat="45.12767" lon="5.55001">
        <ele>1202.3</ele>
        <time>2020-06-03T11:41:49Z</time>
      </trkpt>
      <trkpt lat="45.12772" lon="5.5499">
        <ele>1200.8</ele>
        <time>2020-06-03T11:41:40Z</time>
      </trkpt>
      <trkpt lat="45.12774" lon="5.54984">
        <ele>1200.3</ele>
        <time>2020-06-03T11:41:36Z</time>
      </trkpt>
      <trkpt lat="45.1278" lon="5.54975">
        <ele>1198.4</ele>
        <time>2020-06-03T11:41:28Z</time>
      </trkpt>
      <trkpt lat="45.12789" lon="5.54969">
        <ele>1197</ele>
        <time>2020-06-03T11:41:19Z</time>
      </trkpt>
      <trkpt lat="45.12796" lon="5.54962">
        <ele>1195.5</ele>
        <time>2020-06-03T11:41:11Z</time>
      </trkpt>
      <trkpt lat="45.12803" lon="5.54955">
        <ele>1194.1</ele>
        <time>2020-06-03T11:41:03Z</time>
      </trkpt>
      <trkpt lat="45.12814" lon="5.54951">
        <ele>1192.7</ele>
        <time>2020-06-03T11:40:54Z</time>
      </trkpt>
      <trkpt lat="45.1282" lon="5.54951">
        <ele>1192.2</ele>
        <time>2020-06-03T11:40:50Z</time>
      </trkpt>
      <trkpt lat="45.12829" lon="5.54944">
        <ele>1190.3</ele>
        <time>2020-06-03T11:40:41Z</time>
      </trkpt>
      <trkpt lat="45.12838" lon="5.54942">
        <ele>1188.8</ele>
        <time>2020-06-03T11:40:33Z</time>
      </trkpt>
      <trkpt lat="45.12846" lon="5.54938">
        <ele>1187.4</ele>
        <time>2020-06-03T11:40:25Z</time>
      </trkpt>
      <trkpt lat="45.12857" lon="5.54937">
        <ele>1185.4</ele>
        <time>2020-06-03T11:40:17Z</time>
      </trkpt>
      <trkpt lat="45.12861" lon="5.54937">
        <ele>1185</ele>
        <time>2020-06-03T11:40:13Z</time>
      </trkpt>
      <trkpt lat="45.12868" lon="5.54937">
        <ele>1183.5</ele>
        <time>2020-06-03T11:40:05Z</time>
      </trkpt>
      <trkpt lat="45.12878" lon="5.54939">
        <ele>1182.6</ele>
        <time>2020-06-03T11:39:57Z</time>
      </trkpt>
      <trkpt lat="45.12887" lon="5.54939">
        <ele>1181.6</ele>
        <time>2020-06-03T11:39:49Z</time>
      </trkpt>
      <trkpt lat="45.12896" lon="5.54942">
        <ele>1180.2</ele>
        <time>2020-06-03T11:39:41Z</time>
      </trkpt>
      <trkpt lat="45.12905" lon="5.54945">
        <ele>1179.2</ele>
        <time>2020-06-03T11:39:32Z</time>
      </trkpt>
      <trkpt lat="45.12912" lon="5.54948">
        <ele>1177.8</ele>
        <time>2020-06-03T11:39:25Z</time>
      </trkpt>
      <trkpt lat="45.12922" lon="5.54953">
        <ele>1176.8</ele>
        <time>2020-06-03T11:39:18Z</time>
      </trkpt>
      <trkpt lat="45.12936" lon="5.54961">
        <ele>1175.4</ele>
        <time>2020-06-03T11:39:09Z</time>
      </trkpt>
      <trkpt lat="45.12944" lon="5.54965">
        <ele>1173.9</ele>
        <time>2020-06-03T11:39:02Z</time>
      </trkpt>
      <trkpt lat="45.12951" lon="5.54968">
        <ele>1172.5</ele>
        <time>2020-06-03T11:38:54Z</time>
      </trkpt>
      <trkpt lat="45.12962" lon="5.54978">
        <ele>1171</ele>
        <time>2020-06-03T11:38:45Z</time>
      </trkpt>
      <trkpt lat="45.1297" lon="5.54984">
        <ele>1169.1</ele>
        <time>2020-06-03T11:38:37Z</time>
      </trkpt>
      <trkpt lat="45.12978" lon="5.54991">
        <ele>1168.1</ele>
        <time>2020-06-03T11:38:29Z</time>
      </trkpt>
      <trkpt lat="45.12987" lon="5.54997">
        <ele>1167.2</ele>
        <time>2020-06-03T11:38:22Z</time>
      </trkpt>
      <trkpt lat="45.12998" lon="5.55009">
        <ele>1166.2</ele>
        <time>2020-06-03T11:38:12Z</time>
      </trkpt>
      <trkpt lat="45.13005" lon="5.55017">
        <ele>1164.8</ele>
        <time>2020-06-03T11:38:05Z</time>
      </trkpt>
      <trkpt lat="45.13011" lon="5.55022">
        <ele>1163.3</ele>
        <time>2020-06-03T11:37:59Z</time>
      </trkpt>
      <trkpt lat="45.13019" lon="5.55023">
        <ele>1162.9</ele>
        <time>2020-06-03T11:37:52Z</time>
      </trkpt>
      <trkpt lat="45.13025" lon="5.55024">
        <ele>1161.9</ele>
        <time>2020-06-03T11:37:46Z</time>
      </trkpt>
      <trkpt lat="45.13035" lon="5.55023">
        <ele>1160.9</ele>
        <time>2020-06-03T11:37:38Z</time>
      </trkpt>
      <trkpt lat="45.13039" lon="5.55023">
        <ele>1160.5</ele>
        <time>2020-06-03T11:37:34Z</time>
      </trkpt>
      <trkpt lat="45.13044" lon="5.55019">
        <ele>1159.5</ele>
        <time>2020-06-03T11:37:28Z</time>
      </trkpt>
      <trkpt lat="45.13048" lon="5.55017">
        <ele>1159</ele>
        <time>2020-06-03T11:37:24Z</time>
      </trkpt>
      <trkpt lat="45.13059" lon="5.55009">
        <ele>1157.6</ele>
        <time>2020-06-03T11:37:14Z</time>
      </trkpt>
      <trkpt lat="45.13059" lon="5.55008">
        <ele>1157.6</ele>
        <time>2020-06-03T11:37:13Z</time>
      </trkpt>
      <trkpt lat="45.13064" lon="5.54996">
        <ele>1156.1</ele>
        <time>2020-06-03T11:37:04Z</time>
      </trkpt>
      <trkpt lat="45.13071" lon="5.54987">
        <ele>1154.7</ele>
        <time>2020-06-03T11:36:56Z</time>
      </trkpt>
      <trkpt lat="45.13078" lon="5.54973">
        <ele>1153.2</ele>
        <time>2020-06-03T11:36:46Z</time>
      </trkpt>
      <trkpt lat="45.13087" lon="5.54962">
        <ele>1152.3</ele>
        <time>2020-06-03T11:36:37Z</time>
      </trkpt>
      <trkpt lat="45.13099" lon="5.54961">
        <ele>1150.8</ele>
        <time>2020-06-03T11:36:29Z</time>
      </trkpt>
      <trkpt lat="45.13105" lon="5.5496">
        <ele>1149.9</ele>
        <time>2020-06-03T11:36:25Z</time>
      </trkpt>
      <trkpt lat="45.13112" lon="5.5496">
        <ele>1149.4</ele>
        <time>2020-06-03T11:36:20Z</time>
      </trkpt>
      <trkpt lat="45.13125" lon="5.54963">
        <ele>1148.4</ele>
        <time>2020-06-03T11:36:11Z</time>
      </trkpt>
      <trkpt lat="45.13138" lon="5.5497">
        <ele>1146.5</ele>
        <time>2020-06-03T11:36:01Z</time>
      </trkpt>
      <trkpt lat="45.13148" lon="5.54977">
        <ele>1145.1</ele>
        <time>2020-06-03T11:35:52Z</time>
      </trkpt>
      <trkpt lat="45.13153" lon="5.5498">
        <ele>1144.6</ele>
        <time>2020-06-03T11:35:47Z</time>
      </trkpt>
      <trkpt lat="45.13166" lon="5.54986">
        <ele>1142.7</ele>
        <time>2020-06-03T11:35:37Z</time>
      </trkpt>
      <trkpt lat="45.13173" lon="5.54985">
        <ele>1141.7</ele>
        <time>2020-06-03T11:35:32Z</time>
      </trkpt>
      <trkpt lat="45.13177" lon="5.54987">
        <ele>1141.2</ele>
        <time>2020-06-03T11:35:28Z</time>
      </trkpt>
      <trkpt lat="45.13188" lon="5.54993">
        <ele>1140.7</ele>
        <time>2020-06-03T11:35:19Z</time>
      </trkpt>
      <trkpt lat="45.13192" lon="5.54995">
        <ele>1140.3</ele>
        <time>2020-06-03T11:35:16Z</time>
      </trkpt>
      <trkpt lat="45.13203" lon="5.55007">
        <ele>1138.8</ele>
        <time>2020-06-03T11:35:07Z</time>
      </trkpt>
      <trkpt lat="45.13204" lon="5.5501">
        <ele>1137.9</ele>
        <time>2020-06-03T11:35:04Z</time>
      </trkpt>
      <trkpt lat="45.13209" lon="5.55016">
        <ele>1136.9</ele>
        <time>2020-06-03T11:34:56Z</time>
      </trkpt>
      <trkpt lat="45.13217" lon="5.55025">
        <ele>1135.5</ele>
        <time>2020-06-03T11:34:48Z</time>
      </trkpt>
      <trkpt lat="45.13223" lon="5.55031">
        <ele>1134.5</ele>
        <time>2020-06-03T11:34:42Z</time>
      </trkpt>
      <trkpt lat="45.13229" lon="5.55035">
        <ele>1134</ele>
        <time>2020-06-03T11:34:38Z</time>
      </trkpt>
      <trkpt lat="45.13237" lon="5.55039">
        <ele>1133.5</ele>
        <time>2020-06-03T11:34:32Z</time>
      </trkpt>
      <trkpt lat="45.13247" lon="5.55033">
        <ele>1132.1</ele>
        <time>2020-06-03T11:34:22Z</time>
      </trkpt>
      <trkpt lat="45.13253" lon="5.55032">
        <ele>1131.1</ele>
        <time>2020-06-03T11:34:17Z</time>
      </trkpt>
      <trkpt lat="45.13264" lon="5.5503">
        <ele>1130.2</ele>
        <time>2020-06-03T11:34:09Z</time>
      </trkpt>
      <trkpt lat="45.13274" lon="5.55026">
        <ele>1128.7</ele>
        <time>2020-06-03T11:34:02Z</time>
      </trkpt>
      <trkpt lat="45.13286" lon="5.55026">
        <ele>1127.8</ele>
        <time>2020-06-03T11:33:53Z</time>
      </trkpt>
      <trkpt lat="45.13297" lon="5.55023">
        <ele>1126.3</ele>
        <time>2020-06-03T11:33:44Z</time>
      </trkpt>
      <trkpt lat="45.13298" lon="5.55022">
        <ele>1126.3</ele>
        <time>2020-06-03T11:33:43Z</time>
      </trkpt>
      <trkpt lat="45.13311" lon="5.55017">
        <ele>1124.4</ele>
        <time>2020-06-03T11:33:32Z</time>
      </trkpt>
      <trkpt lat="45.13313" lon="5.55017">
        <ele>1123.9</ele>
        <time>2020-06-03T11:33:30Z</time>
      </trkpt>
      <trkpt lat="45.13324" lon="5.55015">
        <ele>1123</ele>
        <time>2020-06-03T11:33:22Z</time>
      </trkpt>
      <trkpt lat="45.13336" lon="5.5501">
        <ele>1122</ele>
        <time>2020-06-03T11:33:13Z</time>
      </trkpt>
      <trkpt lat="45.13342" lon="5.5501">
        <ele>1121</ele>
        <time>2020-06-03T11:33:09Z</time>
      </trkpt>
      <trkpt lat="45.13351" lon="5.55006">
        <ele>1120.1</ele>
        <time>2020-06-03T11:33:02Z</time>
      </trkpt>
      <trkpt lat="45.13356" lon="5.55005">
        <ele>1120.1</ele>
        <time>2020-06-03T11:32:58Z</time>
      </trkpt>
      <trkpt lat="45.13361" lon="5.55004">
        <ele>1119.6</ele>
        <time>2020-06-03T11:32:54Z</time>
      </trkpt>
      <trkpt lat="45.13362" lon="5.55002">
        <ele>1118.6</ele>
        <time>2020-06-03T11:32:52Z</time>
      </trkpt>
      <trkpt lat="45.1337" lon="5.54997">
        <ele>1117.7</ele>
        <time>2020-06-03T11:32:45Z</time>
      </trkpt>
      <trkpt lat="45.13379" lon="5.54993">
        <ele>1116.7</ele>
        <time>2020-06-03T11:32:37Z</time>
      </trkpt>
      <trkpt lat="45.13386" lon="5.5499">
        <ele>1115.8</ele>
        <time>2020-06-03T11:32:31Z</time>
      </trkpt>
      <trkpt lat="45.13398" lon="5.54987">
        <ele>1114.3</ele>
        <time>2020-06-03T11:32:22Z</time>
      </trkpt>
      <trkpt lat="45.13404" lon="5.54985">
        <ele>1113.3</ele>
        <time>2020-06-03T11:32:17Z</time>
      </trkpt>
      <trkpt lat="45.13413" lon="5.54984">
        <ele>1112.4</ele>
        <time>2020-06-03T11:32:11Z</time>
      </trkpt>
      <trkpt lat="45.13418" lon="5.54981">
        <ele>1111.9</ele>
        <time>2020-06-03T11:32:07Z</time>
      </trkpt>
      <trkpt lat="45.13424" lon="5.54977">
        <ele>1110.9</ele>
        <time>2020-06-03T11:32:02Z</time>
      </trkpt>
      <trkpt lat="45.13427" lon="5.54974">
        <ele>1110.5</ele>
        <time>2020-06-03T11:31:59Z</time>
      </trkpt>
      <trkpt lat="45.13435" lon="5.54968">
        <ele>1109.5</ele>
        <time>2020-06-03T11:31:52Z</time>
      </trkpt>
      <trkpt lat="45.1344" lon="5.54961">
        <ele>1108.5</ele>
        <time>2020-06-03T11:31:47Z</time>
      </trkpt>
      <trkpt lat="45.13446" lon="5.54956">
        <ele>1108.1</ele>
        <time>2020-06-03T11:31:43Z</time>
      </trkpt>
      <trkpt lat="45.13455" lon="5.54943">
        <ele>1107.1</ele>
        <time>2020-06-03T11:31:34Z</time>
      </trkpt>
      <trkpt lat="45.1346" lon="5.54932">
        <ele>1106.1</ele>
        <time>2020-06-03T11:31:26Z</time>
      </trkpt>
      <trkpt lat="45.13465" lon="5.54927">
        <ele>1105.7</ele>
        <time>2020-06-03T11:31:21Z</time>
      </trkpt>
      <trkpt lat="45.13475" lon="5.54919">
        <ele>1104.7</ele>
        <time>2020-06-03T11:31:13Z</time>
      </trkpt>
      <trkpt lat="45.13486" lon="5.54913">
        <ele>1102.8</ele>
        <time>2020-06-03T11:31:04Z</time>
      </trkpt>
      <trkpt lat="45.1349" lon="5.54908">
        <ele>1102.3</ele>
        <time>2020-06-03T11:31:00Z</time>
      </trkpt>
      <trkpt lat="45.13498" lon="5.549">
        <ele>1101.3</ele>
        <time>2020-06-03T11:30:53Z</time>
      </trkpt>
      <trkpt lat="45.13507" lon="5.54894">
        <ele>1100.9</ele>
        <time>2020-06-03T11:30:46Z</time>
      </trkpt>
      <trkpt lat="45.13517" lon="5.54887">
        <ele>1098.9</ele>
        <time>2020-06-03T11:30:38Z</time>
      </trkpt>
      <trkpt lat="45.13528" lon="5.5488">
        <ele>1098</ele>
        <time>2020-06-03T11:30:29Z</time>
      </trkpt>
      <trkpt lat="45.1353" lon="5.54879">
        <ele>1097.5</ele>
        <time>2020-06-03T11:30:28Z</time>
      </trkpt>
      <trkpt lat="45.13541" lon="5.54872">
        <ele>1096</ele>
        <time>2020-06-03T11:30:20Z</time>
      </trkpt>
      <trkpt lat="45.13551" lon="5.54865">
        <ele>1095.6</ele>
        <time>2020-06-03T11:30:12Z</time>
      </trkpt>
      <trkpt lat="45.1356" lon="5.54861">
        <ele>1094.6</ele>
        <time>2020-06-03T11:30:05Z</time>
      </trkpt>
      <trkpt lat="45.1357" lon="5.54858">
        <ele>1093.2</ele>
        <time>2020-06-03T11:29:59Z</time>
      </trkpt>
      <trkpt lat="45.13581" lon="5.54855">
        <ele>1092.2</ele>
        <time>2020-06-03T11:29:50Z</time>
      </trkpt>
      <trkpt lat="45.13593" lon="5.54856">
        <ele>1090.8</ele>
        <time>2020-06-03T11:29:41Z</time>
      </trkpt>
      <trkpt lat="45.13602" lon="5.54855">
        <ele>1089.8</ele>
        <time>2020-06-03T11:29:35Z</time>
      </trkpt>
      <trkpt lat="45.13616" lon="5.54852">
        <ele>1088.4</ele>
        <time>2020-06-03T11:29:25Z</time>
      </trkpt>
      <trkpt lat="45.13621" lon="5.54852">
        <ele>1087.4</ele>
        <time>2020-06-03T11:29:20Z</time>
      </trkpt>
      <trkpt lat="45.13631" lon="5.54851">
        <ele>1086.4</ele>
        <time>2020-06-03T11:29:12Z</time>
      </trkpt>
      <trkpt lat="45.13645" lon="5.54849">
        <ele>1085</ele>
        <time>2020-06-03T11:29:02Z</time>
      </trkpt>
      <trkpt lat="45.13652" lon="5.54852">
        <ele>1084</ele>
        <time>2020-06-03T11:28:57Z</time>
      </trkpt>
      <trkpt lat="45.13655" lon="5.54853">
        <ele>1084</ele>
        <time>2020-06-03T11:28:55Z</time>
      </trkpt>
      <trkpt lat="45.13663" lon="5.54858">
        <ele>1083.1</ele>
        <time>2020-06-03T11:28:49Z</time>
      </trkpt>
      <trkpt lat="45.13672" lon="5.54862">
        <ele>1082.6</ele>
        <time>2020-06-03T11:28:43Z</time>
      </trkpt>
      <trkpt lat="45.13686" lon="5.54869">
        <ele>1080.7</ele>
        <time>2020-06-03T11:28:32Z</time>
      </trkpt>
      <trkpt lat="45.13692" lon="5.54871">
        <ele>1080.2</ele>
        <time>2020-06-03T11:28:28Z</time>
      </trkpt>
      <trkpt lat="45.13702" lon="5.54877">
        <ele>1079.2</ele>
        <time>2020-06-03T11:28:20Z</time>
      </trkpt>
      <trkpt lat="45.13718" lon="5.54892">
        <ele>1077.8</ele>
        <time>2020-06-03T11:28:11Z</time>
      </trkpt>
      <trkpt lat="45.13721" lon="5.54893">
        <ele>1077.3</ele>
        <time>2020-06-03T11:28:09Z</time>
      </trkpt>
      <trkpt lat="45.13732" lon="5.54889">
        <ele>1076.3</ele>
        <time>2020-06-03T11:28:02Z</time>
      </trkpt>
      <trkpt lat="45.13742" lon="5.54881">
        <ele>1075.4</ele>
        <time>2020-06-03T11:27:53Z</time>
      </trkpt>
      <trkpt lat="45.13745" lon="5.54879">
        <ele>1074.9</ele>
        <time>2020-06-03T11:27:50Z</time>
      </trkpt>
      <trkpt lat="45.13749" lon="5.54874">
        <ele>1074.4</ele>
        <time>2020-06-03T11:27:46Z</time>
      </trkpt>
      <trkpt lat="45.13754" lon="5.54866">
        <ele>1073.5</ele>
        <time>2020-06-03T11:27:40Z</time>
      </trkpt>
      <trkpt lat="45.13764" lon="5.54857">
        <ele>1072.5</ele>
        <time>2020-06-03T11:27:31Z</time>
      </trkpt>
      <trkpt lat="45.13768" lon="5.54851">
        <ele>1072</ele>
        <time>2020-06-03T11:27:27Z</time>
      </trkpt>
      <trkpt lat="45.13775" lon="5.54838">
        <ele>1070.6</ele>
        <time>2020-06-03T11:27:19Z</time>
      </trkpt>
      <trkpt lat="45.13782" lon="5.5482">
        <ele>1069.1</ele>
        <time>2020-06-03T11:27:09Z</time>
      </trkpt>
      <trkpt lat="45.13787" lon="5.54799">
        <ele>1068.2</ele>
        <time>2020-06-03T11:26:59Z</time>
      </trkpt>
      <trkpt lat="45.13791" lon="5.5478">
        <ele>1068.2</ele>
        <time>2020-06-03T11:26:50Z</time>
      </trkpt>
      <trkpt lat="45.13794" lon="5.54776">
        <ele>1067.7</ele>
        <time>2020-06-03T11:26:46Z</time>
      </trkpt>
      <trkpt lat="45.13801" lon="5.54771">
        <ele>1066.2</ele>
        <time>2020-06-03T11:26:40Z</time>
      </trkpt>
      <trkpt lat="45.13814" lon="5.54767">
        <ele>1064.8</ele>
        <time>2020-06-03T11:26:31Z</time>
      </trkpt>
      <trkpt lat="45.13829" lon="5.54762">
        <ele>1062.9</ele>
        <time>2020-06-03T11:26:20Z</time>
      </trkpt>
      <trkpt lat="45.13841" lon="5.54757">
        <ele>1061.9</ele>
        <time>2020-06-03T11:26:11Z</time>
      </trkpt>
      <trkpt lat="45.13854" lon="5.54758">
        <ele>1060</ele>
        <time>2020-06-03T11:26:02Z</time>
      </trkpt>
      <trkpt lat="45.13869" lon="5.54756">
        <ele>1058.6</ele>
        <time>2020-06-03T11:25:52Z</time>
      </trkpt>
      <trkpt lat="45.13885" lon="5.5475">
        <ele>1056.2</ele>
        <time>2020-06-03T11:25:42Z</time>
      </trkpt>
      <trkpt lat="45.13901" lon="5.54737">
        <ele>1055.7</ele>
        <time>2020-06-03T11:25:31Z</time>
      </trkpt>
      <trkpt lat="45.13913" lon="5.54724">
        <ele>1054.2</ele>
        <time>2020-06-03T11:25:20Z</time>
      </trkpt>
      <trkpt lat="45.13915" lon="5.54722">
        <ele>1053.7</ele>
        <time>2020-06-03T11:25:18Z</time>
      </trkpt>
      <trkpt lat="45.13925" lon="5.5471">
        <ele>1052.3</ele>
        <time>2020-06-03T11:25:08Z</time>
      </trkpt>
      <trkpt lat="45.13934" lon="5.54693">
        <ele>1050.9</ele>
        <time>2020-06-03T11:24:56Z</time>
      </trkpt>
      <trkpt lat="45.13939" lon="5.54674">
        <ele>1048.5</ele>
        <time>2020-06-03T11:24:46Z</time>
      </trkpt>
      <trkpt lat="45.13946" lon="5.54657">
        <ele>1047.5</ele>
        <time>2020-06-03T11:24:37Z</time>
      </trkpt>
      <trkpt lat="45.13953" lon="5.54637">
        <ele>1045.6</ele>
        <time>2020-06-03T11:24:28Z</time>
      </trkpt>
      <trkpt lat="45.1396" lon="5.54618">
        <ele>1044.6</ele>
        <time>2020-06-03T11:24:21Z</time>
      </trkpt>
      <trkpt lat="45.13957" lon="5.5459">
        <ele>1043.7</ele>
        <time>2020-06-03T11:24:11Z</time>
      </trkpt>
      <trkpt lat="45.13949" lon="5.54566">
        <ele>1042.2</ele>
        <time>2020-06-03T11:24:02Z</time>
      </trkpt>
      <trkpt lat="45.13943" lon="5.54542">
        <ele>1041.3</ele>
        <time>2020-06-03T11:23:54Z</time>
      </trkpt>
      <trkpt lat="45.13941" lon="5.54522">
        <ele>1040.8</ele>
        <time>2020-06-03T11:23:47Z</time>
      </trkpt>
      <trkpt lat="45.13946" lon="5.54507">
        <ele>1039.8</ele>
        <time>2020-06-03T11:23:40Z</time>
      </trkpt>
      <trkpt lat="45.13968" lon="5.54507">
        <ele>1037.9</ele>
        <time>2020-06-03T11:23:30Z</time>
      </trkpt>
      <trkpt lat="45.13997" lon="5.5452">
        <ele>1036</ele>
        <time>2020-06-03T11:23:18Z</time>
      </trkpt>
      <trkpt lat="45.14017" lon="5.54532">
        <ele>1035</ele>
        <time>2020-06-03T11:23:09Z</time>
      </trkpt>
      <trkpt lat="45.14043" lon="5.54549">
        <ele>1033.1</ele>
        <time>2020-06-03T11:22:58Z</time>
      </trkpt>
      <trkpt lat="45.1407" lon="5.54568">
        <ele>1031.6</ele>
        <time>2020-06-03T11:22:47Z</time>
      </trkpt>
      <trkpt lat="45.14102" lon="5.54583">
        <ele>1029.7</ele>
        <time>2020-06-03T11:22:35Z</time>
      </trkpt>
      <trkpt lat="45.14132" lon="5.54588">
        <ele>1028.3</ele>
        <time>2020-06-03T11:22:24Z</time>
      </trkpt>
      <trkpt lat="45.14158" lon="5.54589">
        <ele>1026.8</ele>
        <time>2020-06-03T11:22:14Z</time>
      </trkpt>
      <trkpt lat="45.14192" lon="5.54589">
        <ele>1024.9</ele>
        <time>2020-06-03T11:22:01Z</time>
      </trkpt>
      <trkpt lat="45.14223" lon="5.54588">
        <ele>1023.5</ele>
        <time>2020-06-03T11:21:50Z</time>
      </trkpt>
      <trkpt lat="45.1426" lon="5.54588">
        <ele>1022</ele>
        <time>2020-06-03T11:21:37Z</time>
      </trkpt>
      <trkpt lat="45.14285" lon="5.54586">
        <ele>1021.1</ele>
        <time>2020-06-03T11:21:28Z</time>
      </trkpt>
      <trkpt lat="45.14313" lon="5.54584">
        <ele>1019.1</ele>
        <time>2020-06-03T11:21:18Z</time>
      </trkpt>
      <trkpt lat="45.14331" lon="5.54568">
        <ele>1019.1</ele>
        <time>2020-06-03T11:21:11Z</time>
      </trkpt>
      <trkpt lat="45.14345" lon="5.54522">
        <ele>1017.2</ele>
        <time>2020-06-03T11:21:00Z</time>
      </trkpt>
      <trkpt lat="45.14356" lon="5.54476">
        <ele>1016.3</ele>
        <time>2020-06-03T11:20:49Z</time>
      </trkpt>
      <trkpt lat="45.14367" lon="5.54431">
        <ele>1014.8</ele>
        <time>2020-06-03T11:20:38Z</time>
      </trkpt>
      <trkpt lat="45.14378" lon="5.54385">
        <ele>1013.4</ele>
        <time>2020-06-03T11:20:27Z</time>
      </trkpt>
      <trkpt lat="45.14387" lon="5.5435">
        <ele>1013.9</ele>
        <time>2020-06-03T11:20:18Z</time>
      </trkpt>
      <trkpt lat="45.1439" lon="5.54318">
        <ele>1013.4</ele>
        <time>2020-06-03T11:20:11Z</time>
      </trkpt>
      <trkpt lat="45.1438" lon="5.54291">
        <ele>1012.9</ele>
        <time>2020-06-03T11:20:04Z</time>
      </trkpt>
      <trkpt lat="45.14353" lon="5.54251">
        <ele>1012.4</ele>
        <time>2020-06-03T11:19:52Z</time>
      </trkpt>
      <trkpt lat="45.1433" lon="5.54209">
        <ele>1011.4</ele>
        <time>2020-06-03T11:19:41Z</time>
      </trkpt>
      <trkpt lat="45.14307" lon="5.54155">
        <ele>1011.4</ele>
        <time>2020-06-03T11:19:29Z</time>
      </trkpt>
      <trkpt lat="45.14291" lon="5.54105">
        <ele>1011.4</ele>
        <time>2020-06-03T11:19:19Z</time>
      </trkpt>
      <trkpt lat="45.14288" lon="5.54069">
        <ele>1011.4</ele>
        <time>2020-06-03T11:19:12Z</time>
      </trkpt>
      <trkpt lat="45.14288" lon="5.54027">
        <ele>1011</ele>
        <time>2020-06-03T11:19:04Z</time>
      </trkpt>
      <trkpt lat="45.14286" lon="5.53966">
        <ele>1011</ele>
        <time>2020-06-03T11:18:53Z</time>
      </trkpt>
      <trkpt lat="45.14276" lon="5.53913">
        <ele>1010.5</ele>
        <time>2020-06-03T11:18:43Z</time>
      </trkpt>
      <trkpt lat="45.14257" lon="5.53859">
        <ele>1009.5</ele>
        <time>2020-06-03T11:18:31Z</time>
      </trkpt>
      <trkpt lat="45.1424" lon="5.53814">
        <ele>1009.5</ele>
        <time>2020-06-03T11:18:20Z</time>
      </trkpt>
      <trkpt lat="45.14226" lon="5.53779">
        <ele>1009.5</ele>
        <time>2020-06-03T11:18:11Z</time>
      </trkpt>
      <trkpt lat="45.14215" lon="5.53752">
        <ele>1009.5</ele>
        <time>2020-06-03T11:18:04Z</time>
      </trkpt>
      <trkpt lat="45.14204" lon="5.53731">
        <ele>1009.5</ele>
        <time>2020-06-03T11:17:57Z</time>
      </trkpt>
      <trkpt lat="45.14203" lon="5.53717">
        <ele>1009.5</ele>
        <time>2020-06-03T11:17:52Z</time>
      </trkpt>
      <trkpt lat="45.14206" lon="5.53716">
        <ele>1009.5</ele>
        <time>2020-06-03T11:17:49Z</time>
      </trkpt>
      <trkpt lat="45.14217" lon="5.53703">
        <ele>1011.9</ele>
        <time>2020-06-03T11:17:46Z</time>
      </trkpt>
      <trkpt lat="45.14281" lon="5.53634">
        <ele>1014.3</ele>
        <time>2020-06-03T11:17:39Z</time>
      </trkpt>
      <trkpt lat="45.1429" lon="5.53623">
        <ele>1015.3</ele>
        <time>2020-06-03T11:17:38Z</time>
      </trkpt>
      <trkpt lat="45.14315" lon="5.53583">
        <ele>1016.7</ele>
        <time>2020-06-03T11:17:35Z</time>
      </trkpt>
      <trkpt lat="45.14334" lon="5.53539">
        <ele>1020.6</ele>
        <time>2020-06-03T11:17:32Z</time>
      </trkpt>
      <trkpt lat="45.1435" lon="5.53493">
        <ele>1023.9</ele>
        <time>2020-06-03T11:17:29Z</time>
      </trkpt>
      <trkpt lat="45.14374" lon="5.53424">
        <ele>1027.3</ele>
        <time>2020-06-03T11:17:24Z</time>
      </trkpt>
      <trkpt lat="45.14405" lon="5.5336">
        <ele>1030.7</ele>
        <time>2020-06-03T11:17:19Z</time>
      </trkpt>
      <trkpt lat="45.14427" lon="5.53312">
        <ele>1033.6</ele>
        <time>2020-06-03T11:17:15Z</time>
      </trkpt>
      <trkpt lat="45.14437" lon="5.53264">
        <ele>1037.4</ele>
        <time>2020-06-03T11:17:11Z</time>
      </trkpt>
      <trkpt lat="45.14434" lon="5.5321">
        <ele>1039.3</ele>
        <time>2020-06-03T11:17:06Z</time>
      </trkpt>
      <trkpt lat="45.14432" lon="5.53135">
        <ele>1043.2</ele>
        <time>2020-06-03T11:17:00Z</time>
      </trkpt>
      <trkpt lat="45.14427" lon="5.53075">
        <ele>1046.5</ele>
        <time>2020-06-03T11:16:55Z</time>
      </trkpt>
      <trkpt lat="45.14424" lon="5.53055">
        <ele>1047.5</ele>
        <time>2020-06-03T11:16:53Z</time>
      </trkpt>
      <trkpt lat="45.14415" lon="5.53012">
        <ele>1050.9</ele>
        <time>2020-06-03T11:16:47Z</time>
      </trkpt>
      <trkpt lat="45.14412" lon="5.53001">
        <ele>1051.8</ele>
        <time>2020-06-03T11:16:45Z</time>
      </trkpt>
      <trkpt lat="45.14409" lon="5.52984">
        <ele>1051.8</ele>
        <time>2020-06-03T11:16:39Z</time>
      </trkpt>
      <trkpt lat="45.14409" lon="5.52981">
        <ele>1051.8</ele>
        <time>2020-06-03T11:16:31Z</time>
      </trkpt>
      <trkpt lat="45.14409" lon="5.5298">
        <ele>1051.8</ele>
        <time>2020-06-03T11:16:12Z</time>
      </trkpt>
      <trkpt lat="45.14409" lon="5.52981">
        <ele>1051.8</ele>
        <time>2020-06-03T11:15:54Z</time>
      </trkpt>
      <trkpt lat="45.14408" lon="5.52983">
        <ele>1051.8</ele>
        <time>2020-06-03T11:15:43Z</time>
      </trkpt>
      <trkpt lat="45.14408" lon="5.52982">
        <ele>1051.8</ele>
        <time>2020-06-03T11:15:31Z</time>
      </trkpt>
      <trkpt lat="45.14409" lon="5.52982">
        <ele>1051.8</ele>
        <time>2020-06-03T11:15:19Z</time>
      </trkpt>
      <trkpt lat="45.14409" lon="5.52981">
        <ele>1051.8</ele>
        <time>2020-06-03T11:15:06Z</time>
      </trkpt>
      <trkpt lat="45.14409" lon="5.52981">
        <ele>1052.3</ele>
        <time>2020-06-03T11:14:53Z</time>
      </trkpt>
      <trkpt lat="45.14409" lon="5.52981">
        <ele>1052.3</ele>
        <time>2020-06-03T11:14:40Z</time>
      </trkpt>
      <trkpt lat="45.14409" lon="5.52982">
        <ele>1052.3</ele>
        <time>2020-06-03T11:14:30Z</time>
      </trkpt>
      <trkpt lat="45.14409" lon="5.5298">
        <ele>1052.3</ele>
        <time>2020-06-03T11:14:25Z</time>
      </trkpt>
      <trkpt lat="45.14412" lon="5.52963">
        <ele>1051.3</ele>
        <time>2020-06-03T11:14:16Z</time>
      </trkpt>
      <trkpt lat="45.14416" lon="5.52942">
        <ele>1048.9</ele>
        <time>2020-06-03T11:14:05Z</time>
      </trkpt>
      <trkpt lat="45.14412" lon="5.52933">
        <ele>1047.5</ele>
        <time>2020-06-03T11:13:59Z</time>
      </trkpt>
      <trkpt lat="45.14408" lon="5.52922">
        <ele>1045.6</ele>
        <time>2020-06-03T11:13:52Z</time>
      </trkpt>
      <trkpt lat="45.14401" lon="5.52907">
        <ele>1043.7</ele>
        <time>2020-06-03T11:13:43Z</time>
      </trkpt>
      <trkpt lat="45.14393" lon="5.52894">
        <ele>1041.3</ele>
        <time>2020-06-03T11:13:33Z</time>
      </trkpt>
      <trkpt lat="45.14387" lon="5.5288">
        <ele>1039.3</ele>
        <time>2020-06-03T11:13:24Z</time>
      </trkpt>
      <trkpt lat="45.14382" lon="5.52867">
        <ele>1037.4</ele>
        <time>2020-06-03T11:13:16Z</time>
      </trkpt>
      <trkpt lat="45.14379" lon="5.5285">
        <ele>1035.5</ele>
        <time>2020-06-03T11:13:06Z</time>
      </trkpt>
      <trkpt lat="45.14378" lon="5.52833">
        <ele>1033.1</ele>
        <time>2020-06-03T11:12:56Z</time>
      </trkpt>
      <trkpt lat="45.14377" lon="5.52815">
        <ele>1030.2</ele>
        <time>2020-06-03T11:12:46Z</time>
      </trkpt>
      <trkpt lat="45.14377" lon="5.528">
        <ele>1028.3</ele>
        <time>2020-06-03T11:12:37Z</time>
      </trkpt>
      <trkpt lat="45.14379" lon="5.52794">
        <ele>1027.3</ele>
        <time>2020-06-03T11:12:33Z</time>
      </trkpt>
      <trkpt lat="45.14379" lon="5.5279">
        <ele>1027.3</ele>
        <time>2020-06-03T11:12:31Z</time>
      </trkpt>
      <trkpt lat="45.14377" lon="5.52776">
        <ele>1025.4</ele>
        <time>2020-06-03T11:12:22Z</time>
      </trkpt>
      <trkpt lat="45.14375" lon="5.52755">
        <ele>1023</ele>
        <time>2020-06-03T11:12:11Z</time>
      </trkpt>
      <trkpt lat="45.14375" lon="5.52748">
        <ele>1022</ele>
        <time>2020-06-03T11:12:07Z</time>
      </trkpt>
      <trkpt lat="45.14375" lon="5.52743">
        <ele>1021.5</ele>
        <time>2020-06-03T11:12:04Z</time>
      </trkpt>
      <trkpt lat="45.14374" lon="5.52728">
        <ele>1020.1</ele>
        <time>2020-06-03T11:11:56Z</time>
      </trkpt>
      <trkpt lat="45.14373" lon="5.5271">
        <ele>1018.7</ele>
        <time>2020-06-03T11:11:47Z</time>
      </trkpt>
      <trkpt lat="45.14373" lon="5.52692">
        <ele>1016.7</ele>
        <time>2020-06-03T11:11:37Z</time>
      </trkpt>
      <trkpt lat="45.14373" lon="5.52677">
        <ele>1016.3</ele>
        <time>2020-06-03T11:11:28Z</time>
      </trkpt>
      <trkpt lat="45.14372" lon="5.52663">
        <ele>1014.8</ele>
        <time>2020-06-03T11:11:20Z</time>
      </trkpt>
      <trkpt lat="45.14373" lon="5.52649">
        <ele>1013.9</ele>
        <time>2020-06-03T11:11:12Z</time>
      </trkpt>
      <trkpt lat="45.14373" lon="5.52646">
        <ele>1013.9</ele>
        <time>2020-06-03T11:11:11Z</time>
      </trkpt>
      <trkpt lat="45.14366" lon="5.52635">
        <ele>1013.9</ele>
        <time>2020-06-03T11:11:06Z</time>
      </trkpt>
      <trkpt lat="45.14361" lon="5.52636">
        <ele>1013.4</ele>
        <time>2020-06-03T11:11:04Z</time>
      </trkpt>
      <trkpt lat="45.14337" lon="5.52637">
        <ele>1012.9</ele>
        <time>2020-06-03T11:10:55Z</time>
      </trkpt>
      <trkpt lat="45.14312" lon="5.52636">
        <ele>1011.9</ele>
        <time>2020-06-03T11:10:45Z</time>
      </trkpt>
      <trkpt lat="45.14292" lon="5.52635">
        <ele>1011.9</ele>
        <time>2020-06-03T11:10:37Z</time>
      </trkpt>
      <trkpt lat="45.14274" lon="5.52627">
        <ele>1010.5</ele>
        <time>2020-06-03T11:10:28Z</time>
      </trkpt>
      <trkpt lat="45.14273" lon="5.52625">
        <ele>1010</ele>
        <time>2020-06-03T11:10:27Z</time>
      </trkpt>
      <trkpt lat="45.14275" lon="5.52592">
        <ele>1008.6</ele>
        <time>2020-06-03T11:10:18Z</time>
      </trkpt>
      <trkpt lat="45.14278" lon="5.52557">
        <ele>1008.1</ele>
        <time>2020-06-03T11:10:09Z</time>
      </trkpt>
      <trkpt lat="45.14281" lon="5.52525">
        <ele>1007.1</ele>
        <time>2020-06-03T11:10:00Z</time>
      </trkpt>
      <trkpt lat="45.14282" lon="5.52517">
        <ele>1006.6</ele>
        <time>2020-06-03T11:09:55Z</time>
      </trkpt>
      <trkpt lat="45.14282" lon="5.52516">
        <ele>1006.6</ele>
        <time>2020-06-03T11:09:49Z</time>
      </trkpt>
      <trkpt lat="45.14282" lon="5.52516">
        <ele>1007.1</ele>
        <time>2020-06-03T11:09:30Z</time>
      </trkpt>
      <trkpt lat="45.14282" lon="5.52516">
        <ele>1007.1</ele>
        <time>2020-06-03T11:09:18Z</time>
      </trkpt>
      <trkpt lat="45.14284" lon="5.52499">
        <ele>1006.6</ele>
        <time>2020-06-03T11:09:11Z</time>
      </trkpt>
      <trkpt lat="45.14288" lon="5.52466">
        <ele>1006.2</ele>
        <time>2020-06-03T11:09:03Z</time>
      </trkpt>
      <trkpt lat="45.14293" lon="5.52419">
        <ele>1004.7</ele>
        <time>2020-06-03T11:08:52Z</time>
      </trkpt>
      <trkpt lat="45.14297" lon="5.52379">
        <ele>1004.7</ele>
        <time>2020-06-03T11:08:43Z</time>
      </trkpt>
      <trkpt lat="45.143" lon="5.52351">
        <ele>1005.2</ele>
        <time>2020-06-03T11:08:36Z</time>
      </trkpt>
      <trkpt lat="45.14303" lon="5.52305">
        <ele>1005.2</ele>
        <time>2020-06-03T11:08:27Z</time>
      </trkpt>
      <trkpt lat="45.14304" lon="5.52281">
        <ele>1005.2</ele>
        <time>2020-06-03T11:08:23Z</time>
      </trkpt>
      <trkpt lat="45.14304" lon="5.52268">
        <ele>1005.2</ele>
        <time>2020-06-03T11:08:21Z</time>
      </trkpt>
      <trkpt lat="45.14304" lon="5.52213">
        <ele>1005.7</ele>
        <time>2020-06-03T11:08:13Z</time>
      </trkpt>
      <trkpt lat="45.14308" lon="5.52141">
        <ele>1007.1</ele>
        <time>2020-06-03T11:08:04Z</time>
      </trkpt>
      <trkpt lat="45.14308" lon="5.52135">
        <ele>1007.6</ele>
        <time>2020-06-03T11:08:03Z</time>
      </trkpt>
      <trkpt lat="45.14304" lon="5.52123">
        <ele>1009</ele>
        <time>2020-06-03T11:08:00Z</time>
      </trkpt>
      <trkpt lat="45.14282" lon="5.52124">
        <ele>1009</ele>
        <time>2020-06-03T11:07:53Z</time>
      </trkpt>
      <trkpt lat="45.14248" lon="5.52116">
        <ele>1009</ele>
        <time>2020-06-03T11:07:43Z</time>
      </trkpt>
      <trkpt lat="45.14209" lon="5.52107">
        <ele>1008.6</ele>
        <time>2020-06-03T11:07:32Z</time>
      </trkpt>
      <trkpt lat="45.14176" lon="5.52111">
        <ele>1009</ele>
        <time>2020-06-03T11:07:22Z</time>
      </trkpt>
      <trkpt lat="45.14141" lon="5.52122">
        <ele>1008.6</ele>
        <time>2020-06-03T11:07:12Z</time>
      </trkpt>
      <trkpt lat="45.14113" lon="5.5214">
        <ele>1008.1</ele>
        <time>2020-06-03T11:07:04Z</time>
      </trkpt>
      <trkpt lat="45.14075" lon="5.52177">
        <ele>1007.6</ele>
        <time>2020-06-03T11:06:52Z</time>
      </trkpt>
      <trkpt lat="45.14045" lon="5.52199">
        <ele>1007.1</ele>
        <time>2020-06-03T11:06:43Z</time>
      </trkpt>
      <trkpt lat="45.14021" lon="5.52214">
        <ele>1006.2</ele>
        <time>2020-06-03T11:06:36Z</time>
      </trkpt>
      <trkpt lat="45.13996" lon="5.52229">
        <ele>1006.2</ele>
        <time>2020-06-03T11:06:29Z</time>
      </trkpt>
      <trkpt lat="45.13973" lon="5.52239">
        <ele>1006.2</ele>
        <time>2020-06-03T11:06:21Z</time>
      </trkpt>
      <trkpt lat="45.13962" lon="5.52244">
        <ele>1006.2</ele>
        <time>2020-06-03T11:06:16Z</time>
      </trkpt>
      <trkpt lat="45.13951" lon="5.52238">
        <ele>1006.6</ele>
        <time>2020-06-03T11:06:11Z</time>
      </trkpt>
      <trkpt lat="45.13952" lon="5.52229">
        <ele>1006.6</ele>
        <time>2020-06-03T11:06:08Z</time>
        <extensions>
          <visugpx:TrkExtension xmlns:visugpx="https://www.visugpx.com/editgpx/">
            <visugpx:node>2</visugpx:node>
            </visugpx:TrkExtension>
        </extensions>
      </trkpt>
      <trkpt lat="45.13951" lon="5.52237">
        <ele>984.5</ele>
      </trkpt>
      <trkpt lat="45.13951" lon="5.52247">
        <ele>984.1</ele>
      </trkpt>
      <trkpt lat="45.13941" lon="5.52252">
        <ele>984.1</ele>
      </trkpt>
      <trkpt lat="45.13917" lon="5.52257">
        <ele>984.7</ele>
      </trkpt>
      <trkpt lat="45.13876" lon="5.52261">
        <ele>984.3</ele>
      </trkpt>
      <trkpt lat="45.13836" lon="5.52266">
        <ele>984</ele>
      </trkpt>
      <trkpt lat="45.13815" lon="5.52267">
        <ele>983.3</ele>
      </trkpt>
      <trkpt lat="45.13799" lon="5.52268">
        <ele>983</ele>
      </trkpt>
      <trkpt lat="45.1377" lon="5.52272">
        <ele>982.8</ele>
      </trkpt>
      <trkpt lat="45.13748" lon="5.52278">
        <ele>982</ele>
      </trkpt>
      <trkpt lat="45.13734" lon="5.52281">
        <ele>982</ele>
      </trkpt>
      <trkpt lat="45.13726" lon="5.52287">
        <ele>982</ele>
      </trkpt>
      <trkpt lat="45.13717" lon="5.52296">
        <ele>982</ele>
      </trkpt>
      <trkpt lat="45.13716" lon="5.52298">
        <ele>982</ele>
      </trkpt>
      <trkpt lat="45.13705" lon="5.52308">
        <ele>982</ele>
      </trkpt>
      <trkpt lat="45.13686" lon="5.52316">
        <ele>981.8</ele>
      </trkpt>
      <trkpt lat="45.13665" lon="5.52315">
        <ele>981.3</ele>
      </trkpt>
      <trkpt lat="45.13638" lon="5.52314">
        <ele>981.3</ele>
      </trkpt>
      <trkpt lat="45.13614" lon="5.5232">
        <ele>980.6</ele>
      </trkpt>
      <trkpt lat="45.13583" lon="5.52331">
        <ele>980</ele>
      </trkpt>
      <trkpt lat="45.1356" lon="5.52338">
        <ele>980.2</ele>
      </trkpt>
      <trkpt lat="45.13538" lon="5.52346">
        <ele>980.2</ele>
      </trkpt>
      <trkpt lat="45.13516" lon="5.5236">
        <ele>979.6</ele>
      </trkpt>
      <trkpt lat="45.13501" lon="5.5237">
        <ele>979.4</ele>
      </trkpt>
      <trkpt lat="45.13495" lon="5.52375">
        <ele>979.4</ele>
      </trkpt>
      <trkpt lat="45.13483" lon="5.52377">
        <ele>979.2</ele>
      </trkpt>
      <trkpt lat="45.1346" lon="5.52381">
        <ele>978.6</ele>
      </trkpt>
      <trkpt lat="45.13442" lon="5.5239">
        <ele>978</ele>
      </trkpt>
      <trkpt lat="45.13423" lon="5.52406">
        <ele>978.1</ele>
      </trkpt>
      <trkpt lat="45.13392" lon="5.52432">
        <ele>978.1</ele>
      </trkpt>
      <trkpt lat="45.13382" lon="5.5244">
        <ele>977.8</ele>
      </trkpt>
      <trkpt lat="45.13357" lon="5.52465">
        <ele>977.2</ele>
      </trkpt>
      <trkpt lat="45.13324" lon="5.52501">
        <ele>977</ele>
      </trkpt>
      <trkpt lat="45.13297" lon="5.52531">
        <ele>976.3</ele>
      </trkpt>
      <trkpt lat="45.13261" lon="5.52567">
        <ele>976.4</ele>
      </trkpt>
      <trkpt lat="45.13246" lon="5.52579">
        <ele>976.3</ele>
      </trkpt>
      <trkpt lat="45.13225" lon="5.52592">
        <ele>976.6</ele>
      </trkpt>
      <trkpt lat="45.13211" lon="5.52604">
        <ele>976.7</ele>
      </trkpt>
      <trkpt lat="45.13201" lon="5.52612">
        <ele>976.7</ele>
      </trkpt>
      <trkpt lat="45.13196" lon="5.52612">
        <ele>976.9</ele>
      </trkpt>
      <trkpt lat="45.1319" lon="5.52613">
        <ele>977.1</ele>
      </trkpt>
      <trkpt lat="45.13187" lon="5.5262">
        <ele>976.9</ele>
      </trkpt>
      <trkpt lat="45.13177" lon="5.52647">
        <ele>976.4</ele>
      </trkpt>
      <trkpt lat="45.13172" lon="5.52671">
        <ele>976</ele>
      </trkpt>
      <trkpt lat="45.13167" lon="5.5269">
        <ele>976</ele>
      </trkpt>
      <trkpt lat="45.13151" lon="5.52742">
        <ele>974.7</ele>
      </trkpt>
      <trkpt lat="45.13147" lon="5.52756">
        <ele>974.5</ele>
      </trkpt>
      <trkpt lat="45.13144" lon="5.52763">
        <ele>974.3</ele>
      </trkpt>
      <trkpt lat="45.1314" lon="5.52772">
        <ele>974.2</ele>
      </trkpt>
      <trkpt lat="45.13135" lon="5.52775">
        <ele>974.1</ele>
      </trkpt>
      <trkpt lat="45.13123" lon="5.52783">
        <ele>973.8</ele>
      </trkpt>
      <trkpt lat="45.13123" lon="5.52783">
        <ele>973.8</ele>
        <extensions>
          <visugpx:TrkExtension xmlns:visugpx="https://www.visugpx.com/editgpx/">
            <visugpx:node>3</visugpx:node>
            </visugpx:TrkExtension>
        </extensions>
      </trkpt>
      <trkpt lat="45.13115" lon="5.52788">
        <ele>973.6</ele>
      </trkpt>
      <trkpt lat="45.13112" lon="5.5279">
        <ele>973.6</ele>
      </trkpt>
      <trkpt lat="45.13108" lon="5.52791">
        <ele>973.6</ele>
      </trkpt>
      <trkpt lat="45.13104" lon="5.52791">
        <ele>973.8</ele>
      </trkpt>
      <trkpt lat="45.131" lon="5.52792">
        <ele>973.9</ele>
      </trkpt>
      <trkpt lat="45.13096" lon="5.52791">
        <ele>974.1</ele>
      </trkpt>
      <trkpt lat="45.13093" lon="5.52791">
        <ele>974.2</ele>
      </trkpt>
      <trkpt lat="45.1309" lon="5.52792">
        <ele>974.2</ele>
      </trkpt>
      <trkpt lat="45.13088" lon="5.52794">
        <ele>974.2</ele>
      </trkpt>
      <trkpt lat="45.13084" lon="5.52797">
        <ele>974.3</ele>
      </trkpt>
      <trkpt lat="45.1308" lon="5.52799">
        <ele>974.4</ele>
      </trkpt>
      <trkpt lat="45.13075" lon="5.52801">
        <ele>974.5</ele>
      </trkpt>
      <trkpt lat="45.13071" lon="5.52803">
        <ele>974.5</ele>
      </trkpt>
      <trkpt lat="45.13067" lon="5.52805">
        <ele>974.6</ele>
      </trkpt>
      <trkpt lat="45.13061" lon="5.52804">
        <ele>974.9</ele>
      </trkpt>
      <trkpt lat="45.1305" lon="5.52803">
        <ele>975.5</ele>
      </trkpt>
      <trkpt lat="45.13037" lon="5.52801">
        <ele>976.4</ele>
      </trkpt>
      <trkpt lat="45.13023" lon="5.528">
        <ele>977.2</ele>
      </trkpt>
      <trkpt lat="45.13007" lon="5.52799">
        <ele>977.9</ele>
      </trkpt>
      <trkpt lat="45.13002" lon="5.52798">
        <ele>978.2</ele>
      </trkpt>
      <trkpt lat="45.1299" lon="5.52797">
        <ele>979</ele>
      </trkpt>
      <trkpt lat="45.12978" lon="5.52796">
        <ele>979.9</ele>
      </trkpt>
      <trkpt lat="45.12967" lon="5.52794">
        <ele>980.6</ele>
      </trkpt>
      <trkpt lat="45.12958" lon="5.52793">
        <ele>981</ele>
      </trkpt>
      <trkpt lat="45.12956" lon="5.52792">
        <ele>981.1</ele>
      </trkpt>
      <trkpt lat="45.12923" lon="5.52789">
        <ele>982.4</ele>
      </trkpt>
      <trkpt lat="45.12892" lon="5.52788">
        <ele>983.5</ele>
      </trkpt>
      <trkpt lat="45.12883" lon="5.52787">
        <ele>983.7</ele>
      </trkpt>
      <trkpt lat="45.12863" lon="5.52785">
        <ele>984</ele>
      </trkpt>
      <trkpt lat="45.12837" lon="5.52778">
        <ele>984</ele>
      </trkpt>
      <trkpt lat="45.12821" lon="5.52775">
        <ele>984.1</ele>
      </trkpt>
      <trkpt lat="45.12811" lon="5.52772">
        <ele>984.2</ele>
      </trkpt>
      <trkpt lat="45.12802" lon="5.52768">
        <ele>984.4</ele>
      </trkpt>
      <trkpt lat="45.12793" lon="5.52763">
        <ele>984.5</ele>
      </trkpt>
      <trkpt lat="45.12785" lon="5.52758">
        <ele>984.7</ele>
      </trkpt>
      <trkpt lat="45.12778" lon="5.52753">
        <ele>984.9</ele>
      </trkpt>
      <trkpt lat="45.12761" lon="5.52741">
        <ele>984.7</ele>
      </trkpt>
      <trkpt lat="45.12745" lon="5.52728">
        <ele>985</ele>
      </trkpt>
      <trkpt lat="45.12742" lon="5.52725">
        <ele>985.2</ele>
        <extensions>
          <visugpx:TrkExtension xmlns:visugpx="https://www.visugpx.com/editgpx/">
            <visugpx:node>4</visugpx:node>
            </visugpx:TrkExtension>
        </extensions>
      </trkpt>
      <trkpt lat="45.12754" lon="5.5256">
        <ele>998.5</ele>
        <time>2020-06-03T08:09:37Z</time>
        <extensions>
          <visugpx:TrkExtension xmlns:visugpx="https://www.visugpx.com/editgpx/">
            <visugpx:node>5</visugpx:node>
            </visugpx:TrkExtension>
        </extensions>
      </trkpt>
      <trkpt lat="45.12753" lon="5.52565">
        <ele>998.5</ele>
        <time>2020-06-03T08:09:36Z</time>
      </trkpt>
      <trkpt lat="45.1274" lon="5.52576">
        <ele>999</ele>
        <time>2020-06-03T08:09:32Z</time>
      </trkpt>
      <trkpt lat="45.12725" lon="5.52575">
        <ele>1001.4</ele>
        <time>2020-06-03T08:09:29Z</time>
      </trkpt>
      <trkpt lat="45.12673" lon="5.5256">
        <ele>1004.2</ele>
        <time>2020-06-03T08:09:21Z</time>
      </trkpt>
      <trkpt lat="45.12632" lon="5.52549">
        <ele>1006.2</ele>
        <time>2020-06-03T08:09:13Z</time>
      </trkpt>
      <trkpt lat="45.12607" lon="5.52542">
        <ele>1007.1</ele>
        <time>2020-06-03T08:09:06Z</time>
      </trkpt>
      <trkpt lat="45.12593" lon="5.52538">
        <ele>1007.6</ele>
        <time>2020-06-03T08:09:02Z</time>
      </trkpt>
      <trkpt lat="45.12557" lon="5.52528">
        <ele>1011</ele>
        <time>2020-06-03T08:08:57Z</time>
      </trkpt>
      <trkpt lat="45.12511" lon="5.52516">
        <ele>1014.3</ele>
        <time>2020-06-03T08:08:51Z</time>
      </trkpt>
      <trkpt lat="45.12504" lon="5.52514">
        <ele>1014.3</ele>
        <time>2020-06-03T08:08:50Z</time>
      </trkpt>
      <trkpt lat="45.12455" lon="5.52493">
        <ele>1017.2</ele>
        <time>2020-06-03T08:08:43Z</time>
      </trkpt>
      <trkpt lat="45.12441" lon="5.52486">
        <ele>1018.7</ele>
        <time>2020-06-03T08:08:41Z</time>
      </trkpt>
      <trkpt lat="45.12395" lon="5.52457">
        <ele>1021.5</ele>
        <time>2020-06-03T08:08:34Z</time>
      </trkpt>
      <trkpt lat="45.12372" lon="5.5244">
        <ele>1024.9</ele>
        <time>2020-06-03T08:08:30Z</time>
      </trkpt>
      <trkpt lat="45.12355" lon="5.52429">
        <ele>1026.3</ele>
        <time>2020-06-03T08:08:27Z</time>
      </trkpt>
      <trkpt lat="45.12333" lon="5.52425">
        <ele>1028.3</ele>
        <time>2020-06-03T08:08:23Z</time>
      </trkpt>
      <trkpt lat="45.12323" lon="5.52428">
        <ele>1029.7</ele>
        <time>2020-06-03T08:08:21Z</time>
      </trkpt>
      <trkpt lat="45.12316" lon="5.52433">
        <ele>1029.7</ele>
        <time>2020-06-03T08:08:19Z</time>
      </trkpt>
      <trkpt lat="45.12306" lon="5.52447">
        <ele>1029.7</ele>
        <time>2020-06-03T08:08:13Z</time>
      </trkpt>
      <trkpt lat="45.12306" lon="5.52457">
        <ele>1028.3</ele>
        <time>2020-06-03T08:08:09Z</time>
      </trkpt>
      <trkpt lat="45.12307" lon="5.52486">
        <ele>1028.3</ele>
        <time>2020-06-03T08:07:58Z</time>
      </trkpt>
      <trkpt lat="45.12307" lon="5.52496">
        <ele>1028.3</ele>
        <time>2020-06-03T08:07:46Z</time>
      </trkpt>
      <trkpt lat="45.12306" lon="5.52496">
        <ele>1028.3</ele>
        <time>2020-06-03T08:07:39Z</time>
      </trkpt>
      <trkpt lat="45.12307" lon="5.52499">
        <ele>1028.3</ele>
        <time>2020-06-03T08:07:20Z</time>
      </trkpt>
      <trkpt lat="45.12307" lon="5.52497">
        <ele>1028.3</ele>
        <time>2020-06-03T08:07:01Z</time>
      </trkpt>
      <trkpt lat="45.12307" lon="5.52499">
        <ele>1028.3</ele>
        <time>2020-06-03T08:06:28Z</time>
      </trkpt>
      <trkpt lat="45.12306" lon="5.52498">
        <ele>1028.3</ele>
        <time>2020-06-03T08:05:55Z</time>
      </trkpt>
      <trkpt lat="45.12307" lon="5.52498">
        <ele>1028.3</ele>
        <time>2020-06-03T08:05:32Z</time>
      </trkpt>
      <trkpt lat="45.12308" lon="5.52497">
        <ele>1028.3</ele>
        <time>2020-06-03T08:05:23Z</time>
      </trkpt>
      <trkpt lat="45.12308" lon="5.52496">
        <ele>1028.3</ele>
        <time>2020-06-03T08:05:11Z</time>
      </trkpt>
      <trkpt lat="45.12307" lon="5.52505">
        <ele>1029.7</ele>
        <time>2020-06-03T08:05:05Z</time>
      </trkpt>
      <trkpt lat="45.12304" lon="5.52514">
        <ele>1030.7</ele>
        <time>2020-06-03T08:05:02Z</time>
      </trkpt>
      <trkpt lat="45.12289" lon="5.52527">
        <ele>1030.7</ele>
        <time>2020-06-03T08:04:54Z</time>
      </trkpt>
      <trkpt lat="45.12278" lon="5.52539">
        <ele>1029.2</ele>
        <time>2020-06-03T08:04:44Z</time>
      </trkpt>
      <trkpt lat="45.12268" lon="5.52551">
        <ele>1026.8</ele>
        <time>2020-06-03T08:04:35Z</time>
      </trkpt>
      <trkpt lat="45.12262" lon="5.52566">
        <ele>1025.4</ele>
        <time>2020-06-03T08:04:28Z</time>
      </trkpt>
      <trkpt lat="45.12263" lon="5.52593">
        <ele>1025.4</ele>
        <time>2020-06-03T08:04:18Z</time>
      </trkpt>
      <trkpt lat="45.12264" lon="5.52603">
        <ele>1024.9</ele>
        <time>2020-06-03T08:04:13Z</time>
      </trkpt>
      <trkpt lat="45.12267" lon="5.52625">
        <ele>1023</ele>
        <time>2020-06-03T08:04:01Z</time>
      </trkpt>
      <trkpt lat="45.12268" lon="5.52645">
        <ele>1020.6</ele>
        <time>2020-06-03T08:03:51Z</time>
      </trkpt>
      <trkpt lat="45.12266" lon="5.52664">
        <ele>1019.6</ele>
        <time>2020-06-03T08:03:41Z</time>
      </trkpt>
      <trkpt lat="45.12264" lon="5.5268">
        <ele>1017.2</ele>
        <time>2020-06-03T08:03:32Z</time>
      </trkpt>
      <trkpt lat="45.12263" lon="5.52693">
        <ele>1015.3</ele>
        <time>2020-06-03T08:03:24Z</time>
      </trkpt>
      <trkpt lat="45.1226" lon="5.52711">
        <ele>1013.4</ele>
        <time>2020-06-03T08:03:14Z</time>
      </trkpt>
      <trkpt lat="45.12257" lon="5.52726">
        <ele>1011</ele>
        <time>2020-06-03T08:03:06Z</time>
      </trkpt>
      <trkpt lat="45.12256" lon="5.52741">
        <ele>1009</ele>
        <time>2020-06-03T08:02:58Z</time>
      </trkpt>
      <trkpt lat="45.12256" lon="5.52757">
        <ele>1007.6</ele>
        <time>2020-06-03T08:02:50Z</time>
      </trkpt>
      <trkpt lat="45.12257" lon="5.52774">
        <ele>1006.2</ele>
        <time>2020-06-03T08:02:41Z</time>
      </trkpt>
      <trkpt lat="45.12257" lon="5.5279">
        <ele>1004.2</ele>
        <time>2020-06-03T08:02:32Z</time>
      </trkpt>
      <trkpt lat="45.12259" lon="5.52812">
        <ele>1001.8</ele>
        <time>2020-06-03T08:02:21Z</time>
      </trkpt>
      <trkpt lat="45.12261" lon="5.52831">
        <ele>999.9</ele>
        <time>2020-06-03T08:02:11Z</time>
      </trkpt>
      <trkpt lat="45.12263" lon="5.52853">
        <ele>998</ele>
        <time>2020-06-03T08:02:00Z</time>
      </trkpt>
      <trkpt lat="45.12264" lon="5.52873">
        <ele>996.5</ele>
        <time>2020-06-03T08:01:50Z</time>
      </trkpt>
      <trkpt lat="45.12266" lon="5.5289">
        <ele>994.6</ele>
        <time>2020-06-03T08:01:41Z</time>
      </trkpt>
      <trkpt lat="45.12266" lon="5.5291">
        <ele>992.7</ele>
        <time>2020-06-03T08:01:32Z</time>
      </trkpt>
      <trkpt lat="45.12266" lon="5.52932">
        <ele>990.8</ele>
        <time>2020-06-03T08:01:23Z</time>
      </trkpt>
      <trkpt lat="45.12267" lon="5.52957">
        <ele>988.9</ele>
        <time>2020-06-03T08:01:14Z</time>
      </trkpt>
      <trkpt lat="45.12278" lon="5.52974">
        <ele>986.9</ele>
        <time>2020-06-03T08:01:06Z</time>
      </trkpt>
      <trkpt lat="45.12289" lon="5.52999">
        <ele>985</ele>
        <time>2020-06-03T08:00:56Z</time>
      </trkpt>
      <trkpt lat="45.12288" lon="5.53006">
        <ele>984.5</ele>
        <time>2020-06-03T08:00:54Z</time>
      </trkpt>
      <trkpt lat="45.12271" lon="5.5302">
        <ele>982.6</ele>
        <time>2020-06-03T08:00:47Z</time>
      </trkpt>
      <trkpt lat="45.12252" lon="5.53033">
        <ele>981.6</ele>
        <time>2020-06-03T08:00:42Z</time>
      </trkpt>
      <trkpt lat="45.12241" lon="5.53037">
        <ele>982.6</ele>
        <time>2020-06-03T08:00:40Z</time>
      </trkpt>
      <trkpt lat="45.12204" lon="5.53037">
        <ele>982.6</ele>
        <time>2020-06-03T08:00:32Z</time>
      </trkpt>
      <trkpt lat="45.12176" lon="5.53029">
        <ele>981.2</ele>
        <time>2020-06-03T08:00:24Z</time>
      </trkpt>
      <trkpt lat="45.12139" lon="5.53024">
        <ele>980.7</ele>
        <time>2020-06-03T08:00:17Z</time>
      </trkpt>
      <trkpt lat="45.12106" lon="5.53025">
        <ele>980.7</ele>
        <time>2020-06-03T08:00:11Z</time>
      </trkpt>
      <trkpt lat="45.12101" lon="5.53024">
        <ele>980.7</ele>
        <time>2020-06-03T08:00:10Z</time>
      </trkpt>
      <trkpt lat="45.1207" lon="5.53021">
        <ele>979.2</ele>
        <time>2020-06-03T08:00:04Z</time>
      </trkpt>
      <trkpt lat="45.12064" lon="5.53023">
        <ele>979.2</ele>
        <time>2020-06-03T08:00:03Z</time>
      </trkpt>
      <trkpt lat="45.12025" lon="5.5303">
        <ele>982.1</ele>
        <time>2020-06-03T07:59:57Z</time>
      </trkpt>
      <trkpt lat="45.11985" lon="5.53032">
        <ele>983.1</ele>
        <time>2020-06-03T07:59:49Z</time>
      </trkpt>
      <trkpt lat="45.11958" lon="5.5303">
        <ele>982.6</ele>
        <time>2020-06-03T07:59:40Z</time>
      </trkpt>
      <trkpt lat="45.1194" lon="5.53037">
        <ele>980.7</ele>
        <time>2020-06-03T07:59:33Z</time>
      </trkpt>
      <trkpt lat="45.11916" lon="5.53076">
        <ele>978.8</ele>
        <time>2020-06-03T07:59:23Z</time>
      </trkpt>
      <trkpt lat="45.11901" lon="5.53088">
        <ele>978.3</ele>
        <time>2020-06-03T07:59:19Z</time>
      </trkpt>
      <trkpt lat="45.11847" lon="5.53097">
        <ele>977.3</ele>
        <time>2020-06-03T07:59:08Z</time>
      </trkpt>
      <trkpt lat="45.11798" lon="5.53101">
        <ele>977.3</ele>
        <time>2020-06-03T07:58:58Z</time>
      </trkpt>
      <trkpt lat="45.11759" lon="5.531">
        <ele>977.3</ele>
        <time>2020-06-03T07:58:49Z</time>
      </trkpt>
      <trkpt lat="45.11736" lon="5.53101">
        <ele>977.3</ele>
        <time>2020-06-03T07:58:43Z</time>
      </trkpt>
      <trkpt lat="45.11713" lon="5.53106">
        <ele>975.4</ele>
        <time>2020-06-03T07:58:36Z</time>
      </trkpt>
      <trkpt lat="45.11692" lon="5.53119">
        <ele>975.4</ele>
        <time>2020-06-03T07:58:28Z</time>
      </trkpt>
      <trkpt lat="45.11668" lon="5.53133">
        <ele>975.4</ele>
        <time>2020-06-03T07:58:22Z</time>
      </trkpt>
      <trkpt lat="45.11659" lon="5.53136">
        <ele>976.8</ele>
        <time>2020-06-03T07:58:20Z</time>
      </trkpt>
      <trkpt lat="45.11642" lon="5.53136">
        <ele>976.8</ele>
        <time>2020-06-03T07:58:15Z</time>
      </trkpt>
      <trkpt lat="45.11615" lon="5.53136">
        <ele>976.8</ele>
        <time>2020-06-03T07:58:06Z</time>
      </trkpt>
      <trkpt lat="45.11597" lon="5.53136">
        <ele>976.4</ele>
        <time>2020-06-03T07:57:58Z</time>
      </trkpt>
      <trkpt lat="45.11579" lon="5.53135">
        <ele>975.4</ele>
        <time>2020-06-03T07:57:51Z</time>
      </trkpt>
      <trkpt lat="45.11556" lon="5.53131">
        <ele>974</ele>
        <time>2020-06-03T07:57:41Z</time>
      </trkpt>
      <trkpt lat="45.11531" lon="5.53129">
        <ele>972.5</ele>
        <time>2020-06-03T07:57:30Z</time>
      </trkpt>
      <trkpt lat="45.11513" lon="5.53131">
        <ele>971.6</ele>
        <time>2020-06-03T07:57:21Z</time>
      </trkpt>
      <trkpt lat="45.11505" lon="5.53134">
        <ele>971.1</ele>
        <time>2020-06-03T07:57:15Z</time>
      </trkpt>
      <trkpt lat="45.11504" lon="5.53133">
        <ele>971.1</ele>
        <time>2020-06-03T07:57:09Z</time>
      </trkpt>
      <trkpt lat="45.11503" lon="5.53133">
        <ele>971.1</ele>
        <time>2020-06-03T07:56:59Z</time>
      </trkpt>
      <trkpt lat="45.11502" lon="5.53133">
        <ele>970.6</ele>
        <time>2020-06-03T07:56:49Z</time>
      </trkpt>
      <trkpt lat="45.115" lon="5.53132">
        <ele>970.6</ele>
        <time>2020-06-03T07:56:39Z</time>
      </trkpt>
      <trkpt lat="45.11499" lon="5.53132">
        <ele>970.6</ele>
        <time>2020-06-03T07:56:30Z</time>
      </trkpt>
      <trkpt lat="45.11499" lon="5.53133">
        <ele>970.1</ele>
        <time>2020-06-03T07:56:15Z</time>
      </trkpt>
      <trkpt lat="45.11499" lon="5.53132">
        <ele>970.1</ele>
        <time>2020-06-03T07:55:58Z</time>
      </trkpt>
      <trkpt lat="45.11499" lon="5.53132">
        <ele>970.1</ele>
        <time>2020-06-03T07:55:47Z</time>
      </trkpt>
      <trkpt lat="45.11498" lon="5.53132">
        <ele>970.1</ele>
        <time>2020-06-03T07:55:35Z</time>
      </trkpt>
      <trkpt lat="45.11499" lon="5.5313">
        <ele>970.1</ele>
        <time>2020-06-03T07:55:22Z</time>
      </trkpt>
      <trkpt lat="45.11498" lon="5.53131">
        <ele>970.1</ele>
        <time>2020-06-03T07:55:04Z</time>
      </trkpt>
      <trkpt lat="45.11498" lon="5.53133">
        <ele>970.1</ele>
        <time>2020-06-03T07:54:53Z</time>
      </trkpt>
      <trkpt lat="45.11498" lon="5.53132">
        <ele>970.1</ele>
        <time>2020-06-03T07:54:42Z</time>
      </trkpt>
      <trkpt lat="45.11497" lon="5.53132">
        <ele>970.1</ele>
        <time>2020-06-03T07:54:28Z</time>
      </trkpt>
      <trkpt lat="45.11496" lon="5.53133">
        <ele>970.1</ele>
        <time>2020-06-03T07:54:15Z</time>
      </trkpt>
      <trkpt lat="45.11496" lon="5.53133">
        <ele>970.1</ele>
        <time>2020-06-03T07:54:04Z</time>
      </trkpt>
      <trkpt lat="45.11496" lon="5.53132">
        <ele>970.1</ele>
        <time>2020-06-03T07:53:54Z</time>
      </trkpt>
      <trkpt lat="45.11496" lon="5.53133">
        <ele>969.6</ele>
        <time>2020-06-03T07:53:43Z</time>
      </trkpt>
      <trkpt lat="45.11496" lon="5.53134">
        <ele>969.6</ele>
        <time>2020-06-03T07:53:33Z</time>
      </trkpt>
      <trkpt lat="45.11495" lon="5.53134">
        <ele>969.6</ele>
        <time>2020-06-03T07:53:17Z</time>
      </trkpt>
      <trkpt lat="45.11494" lon="5.53134">
        <ele>969.6</ele>
        <time>2020-06-03T07:53:03Z</time>
      </trkpt>
      <trkpt lat="45.11493" lon="5.53135">
        <ele>969.2</ele>
        <time>2020-06-03T07:52:59Z</time>
      </trkpt>
      <trkpt lat="45.11474" lon="5.53136">
        <ele>968.7</ele>
        <time>2020-06-03T07:52:53Z</time>
      </trkpt>
      <trkpt lat="45.11444" lon="5.53128">
        <ele>968.2</ele>
        <time>2020-06-03T07:52:46Z</time>
      </trkpt>
      <trkpt lat="45.11416" lon="5.53122">
        <ele>968.2</ele>
        <time>2020-06-03T07:52:39Z</time>
      </trkpt>
      <trkpt lat="45.11401" lon="5.53117">
        <ele>968.2</ele>
        <time>2020-06-03T07:52:35Z</time>
      </trkpt>
      <trkpt lat="45.11388" lon="5.53113">
        <ele>968.2</ele>
        <time>2020-06-03T07:52:28Z</time>
      </trkpt>
      <trkpt lat="45.11386" lon="5.53113">
        <ele>968.2</ele>
        <time>2020-06-03T07:52:24Z</time>
      </trkpt>
      <trkpt lat="45.11387" lon="5.53115">
        <ele>968.2</ele>
        <time>2020-06-03T07:52:15Z</time>
      </trkpt>
      <trkpt lat="45.11385" lon="5.53114">
        <ele>967.7</ele>
        <time>2020-06-03T07:52:02Z</time>
      </trkpt>
      <trkpt lat="45.11386" lon="5.53114">
        <ele>967.7</ele>
        <time>2020-06-03T07:51:49Z</time>
      </trkpt>
      <trkpt lat="45.11386" lon="5.53115">
        <ele>967.7</ele>
        <time>2020-06-03T07:51:36Z</time>
      </trkpt>
      <trkpt lat="45.11387" lon="5.53115">
        <ele>967.2</ele>
        <time>2020-06-03T07:51:23Z</time>
      </trkpt>
      <trkpt lat="45.11387" lon="5.53113">
        <ele>967.2</ele>
        <time>2020-06-03T07:51:09Z</time>
      </trkpt>
      <trkpt lat="45.11385" lon="5.53115">
        <ele>967.2</ele>
        <time>2020-06-03T07:50:55Z</time>
      </trkpt>
      <trkpt lat="45.11386" lon="5.53115">
        <ele>967.2</ele>
        <time>2020-06-03T07:50:43Z</time>
      </trkpt>
      <trkpt lat="45.11386" lon="5.53115">
        <ele>967.2</ele>
        <time>2020-06-03T07:50:32Z</time>
      </trkpt>
      <trkpt lat="45.1139" lon="5.53114">
        <ele>967.2</ele>
        <time>2020-06-03T07:50:19Z</time>
      </trkpt>
      <trkpt lat="45.11389" lon="5.53115">
        <ele>967.2</ele>
        <time>2020-06-03T07:50:04Z</time>
      </trkpt>
      <trkpt lat="45.11388" lon="5.53115">
        <ele>967.2</ele>
        <time>2020-06-03T07:49:57Z</time>
      </trkpt>
      <trkpt lat="45.11392" lon="5.53117">
        <ele>967.2</ele>
        <time>2020-06-03T07:49:47Z</time>
      </trkpt>
      <trkpt lat="45.11392" lon="5.53118">
        <ele>966.7</ele>
        <time>2020-06-03T07:49:35Z</time>
      </trkpt>
      <trkpt lat="45.11392" lon="5.53118">
        <ele>966.7</ele>
        <time>2020-06-03T07:49:24Z</time>
      </trkpt>
      <trkpt lat="45.11392" lon="5.53118">
        <ele>966.3</ele>
        <time>2020-06-03T07:49:12Z</time>
      </trkpt>
      <trkpt lat="45.11392" lon="5.53117">
        <ele>966.3</ele>
        <time>2020-06-03T07:49:00Z</time>
      </trkpt>
      <trkpt lat="45.11391" lon="5.53114">
        <ele>966.3</ele>
        <time>2020-06-03T07:48:47Z</time>
      </trkpt>
      <trkpt lat="45.11391" lon="5.53115">
        <ele>966.3</ele>
        <time>2020-06-03T07:48:36Z</time>
      </trkpt>
      <trkpt lat="45.11391" lon="5.53115">
        <ele>966.3</ele>
        <time>2020-06-03T07:48:24Z</time>
      </trkpt>
      <trkpt lat="45.11391" lon="5.53112">
        <ele>966.3</ele>
        <time>2020-06-03T07:48:18Z</time>
      </trkpt>
      <trkpt lat="45.11392" lon="5.5311">
        <ele>966.3</ele>
        <time>2020-06-03T07:48:17Z</time>
      </trkpt>
      <trkpt lat="45.11387" lon="5.53111">
        <ele>965.3</ele>
        <time>2020-06-03T07:48:12Z</time>
      </trkpt>
      <trkpt lat="45.11386" lon="5.5312">
        <ele>965.3</ele>
        <time>2020-06-03T07:48:08Z</time>
      </trkpt>
      <trkpt lat="45.11375" lon="5.53122">
        <ele>965.3</ele>
        <time>2020-06-03T07:48:02Z</time>
      </trkpt>
      <trkpt lat="45.11348" lon="5.53107">
        <ele>965.3</ele>
        <time>2020-06-03T07:47:54Z</time>
      </trkpt>
      <trkpt lat="45.11317" lon="5.53084">
        <ele>966.3</ele>
        <time>2020-06-03T07:47:45Z</time>
      </trkpt>
      <trkpt lat="45.11291" lon="5.53067">
        <ele>966.3</ele>
        <time>2020-06-03T07:47:37Z</time>
      </trkpt>
      <trkpt lat="45.11271" lon="5.53058">
        <ele>966.7</ele>
        <time>2020-06-03T07:47:28Z</time>
      </trkpt>
      <trkpt lat="45.11253" lon="5.5305">
        <ele>965.3</ele>
        <time>2020-06-03T07:47:19Z</time>
      </trkpt>
      <trkpt lat="45.1125" lon="5.53048">
        <ele>965.3</ele>
        <time>2020-06-03T07:47:18Z</time>
      </trkpt>
      <trkpt lat="45.11235" lon="5.53045">
        <ele>964.3</ele>
        <time>2020-06-03T07:47:14Z</time>
      </trkpt>
      <trkpt lat="45.11226" lon="5.53077">
        <ele>964.8</ele>
        <time>2020-06-03T07:47:09Z</time>
      </trkpt>
      <trkpt lat="45.11227" lon="5.53085">
        <ele>964.8</ele>
        <time>2020-06-03T07:47:08Z</time>
      </trkpt>
      <trkpt lat="45.11221" lon="5.53106">
        <ele>966.7</ele>
        <time>2020-06-03T07:47:03Z</time>
      </trkpt>
      <trkpt lat="45.11207" lon="5.53098">
        <ele>966.7</ele>
        <time>2020-06-03T07:46:58Z</time>
      </trkpt>
      <trkpt lat="45.11194" lon="5.53087">
        <ele>966.7</ele>
        <time>2020-06-03T07:46:50Z</time>
      </trkpt>
      <trkpt lat="45.11174" lon="5.53077">
        <ele>966.7</ele>
        <time>2020-06-03T07:46:44Z</time>
      </trkpt>
      <trkpt lat="45.11128" lon="5.53051">
        <ele>966.3</ele>
        <time>2020-06-03T07:46:33Z</time>
      </trkpt>
      <trkpt lat="45.11086" lon="5.53026">
        <ele>965.8</ele>
        <time>2020-06-03T07:46:23Z</time>
      </trkpt>
      <trkpt lat="45.11052" lon="5.53006">
        <ele>965.8</ele>
        <time>2020-06-03T07:46:15Z</time>
      </trkpt>
      <trkpt lat="45.11004" lon="5.52981">
        <ele>965.3</ele>
        <time>2020-06-03T07:46:04Z</time>
      </trkpt>
      <trkpt lat="45.10957" lon="5.52956">
        <ele>965.3</ele>
        <time>2020-06-03T07:45:53Z</time>
      </trkpt>
      <trkpt lat="45.10925" lon="5.52942">
        <ele>965.3</ele>
        <time>2020-06-03T07:45:46Z</time>
      </trkpt>
      <trkpt lat="45.10883" lon="5.52926">
        <ele>965.3</ele>
        <time>2020-06-03T07:45:36Z</time>
      </trkpt>
      <trkpt lat="45.10863" lon="5.52925">
        <ele>965.3</ele>
        <time>2020-06-03T07:45:30Z</time>
      </trkpt>
      <trkpt lat="45.10851" lon="5.52929">
        <ele>962.9</ele>
        <time>2020-06-03T07:45:23Z</time>
      </trkpt>
      <trkpt lat="45.10845" lon="5.52935">
        <ele>961.9</ele>
        <time>2020-06-03T07:45:19Z</time>
      </trkpt>
      <trkpt lat="45.10828" lon="5.52955">
        <ele>961.9</ele>
        <time>2020-06-03T07:45:12Z</time>
      </trkpt>
      <trkpt lat="45.10818" lon="5.52969">
        <ele>963.9</ele>
        <time>2020-06-03T07:45:06Z</time>
      </trkpt>
      <trkpt lat="45.10815" lon="5.52972">
        <ele>963.9</ele>
        <time>2020-06-03T07:45:01Z</time>
      </trkpt>
      <trkpt lat="45.10815" lon="5.52972">
        <ele>963.9</ele>
        <time>2020-06-03T07:44:59Z</time>
      </trkpt>
      <trkpt lat="45.10814" lon="5.52972">
        <ele>963.9</ele>
        <time>2020-06-03T07:44:46Z</time>
      </trkpt>
      <trkpt lat="45.10815" lon="5.52971">
        <ele>963.9</ele>
        <time>2020-06-03T07:44:38Z</time>
      </trkpt>
      <trkpt lat="45.10815" lon="5.52971">
        <ele>963.9</ele>
        <time>2020-06-03T07:44:19Z</time>
      </trkpt>
      <trkpt lat="45.10813" lon="5.52971">
        <ele>963.4</ele>
        <time>2020-06-03T07:44:04Z</time>
      </trkpt>
      <trkpt lat="45.10813" lon="5.52969">
        <ele>963.4</ele>
        <time>2020-06-03T07:43:42Z</time>
      </trkpt>
      <trkpt lat="45.10812" lon="5.5297">
        <ele>963.4</ele>
        <time>2020-06-03T07:43:20Z</time>
      </trkpt>
      <trkpt lat="45.10811" lon="5.5297">
        <ele>963.4</ele>
        <time>2020-06-03T07:43:01Z</time>
      </trkpt>
      <trkpt lat="45.10813" lon="5.5297">
        <ele>963.4</ele>
        <time>2020-06-03T07:42:46Z</time>
      </trkpt>
      <trkpt lat="45.10814" lon="5.5297">
        <ele>963.4</ele>
        <time>2020-06-03T07:42:33Z</time>
      </trkpt>
      <trkpt lat="45.10811" lon="5.5297">
        <ele>963.4</ele>
        <time>2020-06-03T07:42:20Z</time>
      </trkpt>
      <trkpt lat="45.10811" lon="5.52971">
        <ele>963.4</ele>
        <time>2020-06-03T07:42:05Z</time>
      </trkpt>
      <trkpt lat="45.10812" lon="5.5297">
        <ele>963.4</ele>
        <time>2020-06-03T07:41:50Z</time>
      </trkpt>
      <trkpt lat="45.10813" lon="5.52966">
        <ele>963.4</ele>
        <time>2020-06-03T07:41:31Z</time>
      </trkpt>
      <trkpt lat="45.10812" lon="5.52966">
        <ele>963.4</ele>
        <time>2020-06-03T07:41:11Z</time>
      </trkpt>
      <trkpt lat="45.10812" lon="5.5297">
        <ele>963.4</ele>
        <time>2020-06-03T07:40:44Z</time>
      </trkpt>
      <trkpt lat="45.10811" lon="5.5297">
        <ele>963.4</ele>
        <time>2020-06-03T07:40:36Z</time>
      </trkpt>
      <trkpt lat="45.10809" lon="5.52972">
        <ele>963.4</ele>
        <time>2020-06-03T07:40:22Z</time>
      </trkpt>
      <trkpt lat="45.10808" lon="5.52973">
        <ele>962.9</ele>
        <time>2020-06-03T07:40:16Z</time>
      </trkpt>
      <trkpt lat="45.108" lon="5.52975">
        <ele>962.4</ele>
        <time>2020-06-03T07:40:10Z</time>
      </trkpt>
      <trkpt lat="45.10792" lon="5.52956">
        <ele>961</ele>
        <time>2020-06-03T07:40:02Z</time>
      </trkpt>
      <trkpt lat="45.10781" lon="5.52944">
        <ele>961</ele>
        <time>2020-06-03T07:39:58Z</time>
      </trkpt>
      <trkpt lat="45.10771" lon="5.52936">
        <ele>964.3</ele>
        <time>2020-06-03T07:39:56Z</time>
      </trkpt>
      <trkpt lat="45.1075" lon="5.52922">
        <ele>968.2</ele>
        <time>2020-06-03T07:39:52Z</time>
      </trkpt>
      <trkpt lat="45.107" lon="5.5289">
        <ele>971.1</ele>
        <time>2020-06-03T07:39:43Z</time>
      </trkpt>
      <trkpt lat="45.10678" lon="5.52878">
        <ele>971.6</ele>
        <time>2020-06-03T07:39:39Z</time>
      </trkpt>
      <trkpt lat="45.10654" lon="5.52868">
        <ele>971.6</ele>
        <time>2020-06-03T07:39:35Z</time>
      </trkpt>
      <trkpt lat="45.10608" lon="5.52862">
        <ele>973</ele>
        <time>2020-06-03T07:39:29Z</time>
      </trkpt>
      <trkpt lat="45.10592" lon="5.52864">
        <ele>974.4</ele>
        <time>2020-06-03T07:39:27Z</time>
      </trkpt>
      <trkpt lat="45.10571" lon="5.52874">
        <ele>975.9</ele>
        <time>2020-06-03T07:39:24Z</time>
      </trkpt>
      <trkpt lat="45.10557" lon="5.52884">
        <ele>978.3</ele>
        <time>2020-06-03T07:39:21Z</time>
      </trkpt>
      <trkpt lat="45.10553" lon="5.52886">
        <ele>978.8</ele>
        <time>2020-06-03T07:39:20Z</time>
      </trkpt>
      <trkpt lat="45.10539" lon="5.52885">
        <ele>978.8</ele>
        <time>2020-06-03T07:39:15Z</time>
      </trkpt>
      <trkpt lat="45.10528" lon="5.52857">
        <ele>977.3</ele>
        <time>2020-06-03T07:39:06Z</time>
      </trkpt>
      <trkpt lat="45.10531" lon="5.52834">
        <ele>976.4</ele>
        <time>2020-06-03T07:38:58Z</time>
      </trkpt>
      <trkpt lat="45.10537" lon="5.52815">
        <ele>974.4</ele>
        <time>2020-06-03T07:38:50Z</time>
      </trkpt>
      <trkpt lat="45.10545" lon="5.528">
        <ele>972</ele>
        <time>2020-06-03T07:38:43Z</time>
      </trkpt>
      <trkpt lat="45.10566" lon="5.52757">
        <ele>970.1</ele>
        <time>2020-06-03T07:38:33Z</time>
      </trkpt>
      <trkpt lat="45.10568" lon="5.52752">
        <ele>970.1</ele>
        <time>2020-06-03T07:38:32Z</time>
      </trkpt>
      <trkpt lat="45.10581" lon="5.52717">
        <ele>968.7</ele>
        <time>2020-06-03T07:38:23Z</time>
      </trkpt>
      <trkpt lat="45.10584" lon="5.52702">
        <ele>967.7</ele>
        <time>2020-06-03T07:38:18Z</time>
      </trkpt>
      <trkpt lat="45.10581" lon="5.52691">
        <ele>966.7</ele>
        <time>2020-06-03T07:38:15Z</time>
      </trkpt>
      <trkpt lat="45.10558" lon="5.5267">
        <ele>965.3</ele>
        <time>2020-06-03T07:38:08Z</time>
      </trkpt>
      <trkpt lat="45.10537" lon="5.52666">
        <ele>964.8</ele>
        <time>2020-06-03T07:38:03Z</time>
      </trkpt>
      <trkpt lat="45.10522" lon="5.52669">
        <ele>963.9</ele>
        <time>2020-06-03T07:37:59Z</time>
      </trkpt>
      <trkpt lat="45.10495" lon="5.52657">
        <ele>961</ele>
        <time>2020-06-03T07:37:54Z</time>
      </trkpt>
      <trkpt lat="45.10449" lon="5.52643">
        <ele>961.5</ele>
        <time>2020-06-03T07:37:47Z</time>
      </trkpt>
      <trkpt lat="45.10412" lon="5.52641">
        <ele>961.9</ele>
        <time>2020-06-03T07:37:42Z</time>
      </trkpt>
      <trkpt lat="45.1038" lon="5.52643">
        <ele>964.8</ele>
        <time>2020-06-03T07:37:38Z</time>
      </trkpt>
      <trkpt lat="45.1034" lon="5.52649">
        <ele>966.3</ele>
        <time>2020-06-03T07:37:32Z</time>
      </trkpt>
      <trkpt lat="45.10302" lon="5.52639">
        <ele>967.7</ele>
        <time>2020-06-03T07:37:26Z</time>
      </trkpt>
      <trkpt lat="45.10281" lon="5.52625">
        <ele>969.2</ele>
        <time>2020-06-03T07:37:22Z</time>
      </trkpt>
      <trkpt lat="45.10261" lon="5.52621">
        <ele>970.6</ele>
        <time>2020-06-03T07:37:19Z</time>
      </trkpt>
      <trkpt lat="45.10246" lon="5.52621">
        <ele>972.5</ele>
        <time>2020-06-03T07:37:17Z</time>
      </trkpt>
      <trkpt lat="45.10225" lon="5.52627">
        <ele>975.9</ele>
        <time>2020-06-03T07:37:13Z</time>
      </trkpt>
      <trkpt lat="45.10222" lon="5.5263">
        <ele>975.9</ele>
        <time>2020-06-03T07:37:12Z</time>
      </trkpt>
      <trkpt lat="45.10206" lon="5.5265">
        <ele>975.9</ele>
        <time>2020-06-03T07:37:04Z</time>
      </trkpt>
      <trkpt lat="45.10205" lon="5.52654">
        <ele>975.9</ele>
        <time>2020-06-03T07:37:03Z</time>
      </trkpt>
      <trkpt lat="45.10201" lon="5.52684">
        <ele>974.9</ele>
        <time>2020-06-03T07:36:54Z</time>
      </trkpt>
      <trkpt lat="45.10193" lon="5.52695">
        <ele>974</ele>
        <time>2020-06-03T07:36:48Z</time>
      </trkpt>
      <trkpt lat="45.10185" lon="5.52706">
        <ele>972.5</ele>
        <time>2020-06-03T07:36:42Z</time>
      </trkpt>
      <trkpt lat="45.10168" lon="5.52724">
        <ele>970.1</ele>
        <time>2020-06-03T07:36:31Z</time>
      </trkpt>
      <trkpt lat="45.10151" lon="5.5273">
        <ele>968.7</ele>
        <time>2020-06-03T07:36:24Z</time>
      </trkpt>
      <trkpt lat="45.10133" lon="5.52729">
        <ele>968.2</ele>
        <time>2020-06-03T07:36:17Z</time>
      </trkpt>
      <trkpt lat="45.10116" lon="5.52713">
        <ele>966.7</ele>
        <time>2020-06-03T07:36:08Z</time>
      </trkpt>
      <trkpt lat="45.10104" lon="5.52682">
        <ele>965.3</ele>
        <time>2020-06-03T07:35:58Z</time>
      </trkpt>
      <trkpt lat="45.10091" lon="5.52652">
        <ele>962.9</ele>
        <time>2020-06-03T07:35:48Z</time>
      </trkpt>
      <trkpt lat="45.10074" lon="5.5262">
        <ele>961.9</ele>
        <time>2020-06-03T07:35:37Z</time>
      </trkpt>
      <trkpt lat="45.10063" lon="5.52586">
        <ele>961</ele>
        <time>2020-06-03T07:35:27Z</time>
      </trkpt>
      <trkpt lat="45.10054" lon="5.52554">
        <ele>960</ele>
        <time>2020-06-03T07:35:16Z</time>
      </trkpt>
      <trkpt lat="45.10042" lon="5.5253">
        <ele>957.6</ele>
        <time>2020-06-03T07:35:06Z</time>
      </trkpt>
      <trkpt lat="45.10027" lon="5.52512">
        <ele>955.7</ele>
        <time>2020-06-03T07:34:58Z</time>
      </trkpt>
      <trkpt lat="45.10018" lon="5.52504">
        <ele>955.2</ele>
        <time>2020-06-03T07:34:53Z</time>
      </trkpt>
      <trkpt lat="45.10004" lon="5.52519">
        <ele>952.3</ele>
        <time>2020-06-03T07:34:46Z</time>
      </trkpt>
      <trkpt lat="45.09998" lon="5.52525">
        <ele>950.9</ele>
        <time>2020-06-03T07:34:44Z</time>
      </trkpt>
      <trkpt lat="45.09971" lon="5.52523">
        <ele>950.9</ele>
        <time>2020-06-03T07:34:38Z</time>
      </trkpt>
      <trkpt lat="45.09953" lon="5.5251">
        <ele>950.9</ele>
        <time>2020-06-03T07:34:34Z</time>
      </trkpt>
      <trkpt lat="45.0994" lon="5.52503">
        <ele>950.9</ele>
        <time>2020-06-03T07:34:31Z</time>
      </trkpt>
      <trkpt lat="45.09935" lon="5.52501">
        <ele>950.9</ele>
        <time>2020-06-03T07:34:30Z</time>
      </trkpt>
      <trkpt lat="45.0991" lon="5.52498">
        <ele>950.9</ele>
        <time>2020-06-03T07:34:25Z</time>
      </trkpt>
      <trkpt lat="45.09894" lon="5.525">
        <ele>950.9</ele>
        <time>2020-06-03T07:34:22Z</time>
      </trkpt>
      <trkpt lat="45.09883" lon="5.52506">
        <ele>950.9</ele>
        <time>2020-06-03T07:34:19Z</time>
      </trkpt>
      <trkpt lat="45.09871" lon="5.52533">
        <ele>950.9</ele>
        <time>2020-06-03T07:34:15Z</time>
      </trkpt>
      <trkpt lat="45.09869" lon="5.52565">
        <ele>953.8</ele>
        <time>2020-06-03T07:34:12Z</time>
      </trkpt>
      <trkpt lat="45.09868" lon="5.52576">
        <ele>955.2</ele>
        <time>2020-06-03T07:34:11Z</time>
      </trkpt>
      <trkpt lat="45.09867" lon="5.52603">
        <ele>958.6</ele>
        <time>2020-06-03T07:34:06Z</time>
      </trkpt>
      <trkpt lat="45.09867" lon="5.52603">
        <ele>958.6</ele>
        <time>2020-06-03T07:33:58Z</time>
      </trkpt>
      <trkpt lat="45.09867" lon="5.52605">
        <ele>958.6</ele>
        <time>2020-06-03T07:33:52Z</time>
      </trkpt>
      <trkpt lat="45.09873" lon="5.5261">
        <ele>958.6</ele>
        <time>2020-06-03T07:33:48Z</time>
      </trkpt>
      <trkpt lat="45.09869" lon="5.52629">
        <ele>958.6</ele>
        <time>2020-06-03T07:33:44Z</time>
      </trkpt>
      <trkpt lat="45.09852" lon="5.52687">
        <ele>958.6</ele>
        <time>2020-06-03T07:33:35Z</time>
      </trkpt>
      <trkpt lat="45.09839" lon="5.52708">
        <ele>958.6</ele>
        <time>2020-06-03T07:33:31Z</time>
      </trkpt>
      <trkpt lat="45.0981" lon="5.5274">
        <ele>958.6</ele>
        <time>2020-06-03T07:33:23Z</time>
      </trkpt>
      <trkpt lat="45.09794" lon="5.52753">
        <ele>958.6</ele>
        <time>2020-06-03T07:33:17Z</time>
      </trkpt>
      <trkpt lat="45.09792" lon="5.52756">
        <ele>958.6</ele>
        <time>2020-06-03T07:33:01Z</time>
      </trkpt>
      <trkpt lat="45.09791" lon="5.52754">
        <ele>958.6</ele>
        <time>2020-06-03T07:32:43Z</time>
      </trkpt>
      <trkpt lat="45.09785" lon="5.52756">
        <ele>958.1</ele>
        <time>2020-06-03T07:32:38Z</time>
      </trkpt>
      <trkpt lat="45.09781" lon="5.52757">
        <ele>958.1</ele>
        <time>2020-06-03T07:32:37Z</time>
      </trkpt>
      <trkpt lat="45.09755" lon="5.52745">
        <ele>958.6</ele>
        <time>2020-06-03T07:32:32Z</time>
      </trkpt>
      <trkpt lat="45.09746" lon="5.52733">
        <ele>959.5</ele>
        <time>2020-06-03T07:32:30Z</time>
      </trkpt>
      <trkpt lat="45.09736" lon="5.52715">
        <ele>960.5</ele>
        <time>2020-06-03T07:32:27Z</time>
      </trkpt>
      <trkpt lat="45.09721" lon="5.52691">
        <ele>962.9</ele>
        <time>2020-06-03T07:32:22Z</time>
      </trkpt>
      <trkpt lat="45.09712" lon="5.52679">
        <ele>962.9</ele>
        <time>2020-06-03T07:32:20Z</time>
      </trkpt>
      <trkpt lat="45.09686" lon="5.52661">
        <ele>965.3</ele>
        <time>2020-06-03T07:32:16Z</time>
      </trkpt>
      <trkpt lat="45.09659" lon="5.52664">
        <ele>967.7</ele>
        <time>2020-06-03T07:32:13Z</time>
      </trkpt>
      <trkpt lat="45.09643" lon="5.52669">
        <ele>970.1</ele>
        <time>2020-06-03T07:32:11Z</time>
      </trkpt>
      <trkpt lat="45.09597" lon="5.52687">
        <ele>974.4</ele>
        <time>2020-06-03T07:32:05Z</time>
      </trkpt>
      <trkpt lat="45.09583" lon="5.52695">
        <ele>976.8</ele>
        <time>2020-06-03T07:32:01Z</time>
      </trkpt>
      <trkpt lat="45.09564" lon="5.52695">
        <ele>975.9</ele>
        <time>2020-06-03T07:31:51Z</time>
      </trkpt>
      <trkpt lat="45.09552" lon="5.52693">
        <ele>974.9</ele>
        <time>2020-06-03T07:31:43Z</time>
      </trkpt>
      <trkpt lat="45.09537" lon="5.52688">
        <ele>972.5</ele>
        <time>2020-06-03T07:31:32Z</time>
      </trkpt>
      <trkpt lat="45.09527" lon="5.52684">
        <ele>971.1</ele>
        <time>2020-06-03T07:31:23Z</time>
      </trkpt>
      <trkpt lat="45.09517" lon="5.52679">
        <ele>969.6</ele>
        <time>2020-06-03T07:31:15Z</time>
      </trkpt>
      <trkpt lat="45.09506" lon="5.52668">
        <ele>966.3</ele>
        <time>2020-06-03T07:31:05Z</time>
      </trkpt>
      <trkpt lat="45.09503" lon="5.52663">
        <ele>965.8</ele>
        <time>2020-06-03T07:31:02Z</time>
      </trkpt>
      <trkpt lat="45.09495" lon="5.52654">
        <ele>963.9</ele>
        <time>2020-06-03T07:30:55Z</time>
      </trkpt>
      <trkpt lat="45.09483" lon="5.52644">
        <ele>961.9</ele>
        <time>2020-06-03T07:30:46Z</time>
      </trkpt>
      <trkpt lat="45.09471" lon="5.52633">
        <ele>959.5</ele>
        <time>2020-06-03T07:30:38Z</time>
      </trkpt>
      <trkpt lat="45.09455" lon="5.52627">
        <ele>958.1</ele>
        <time>2020-06-03T07:30:30Z</time>
      </trkpt>
      <trkpt lat="45.09439" lon="5.52629">
        <ele>955.7</ele>
        <time>2020-06-03T07:30:22Z</time>
      </trkpt>
      <trkpt lat="45.09437" lon="5.5263">
        <ele>955.7</ele>
        <time>2020-06-03T07:30:21Z</time>
      </trkpt>
      <trkpt lat="45.09421" lon="5.52647">
        <ele>952.8</ele>
        <time>2020-06-03T07:30:14Z</time>
      </trkpt>
      <trkpt lat="45.09394" lon="5.52677">
        <ele>952.3</ele>
        <time>2020-06-03T07:30:02Z</time>
      </trkpt>
      <trkpt lat="45.09383" lon="5.52677">
        <ele>952.3</ele>
        <time>2020-06-03T07:29:56Z</time>
      </trkpt>
      <trkpt lat="45.0938" lon="5.52672">
        <ele>951.8</ele>
        <time>2020-06-03T07:29:52Z</time>
      </trkpt>
      <trkpt lat="45.09375" lon="5.52671">
        <ele>951.8</ele>
        <time>2020-06-03T07:29:49Z</time>
      </trkpt>
      <trkpt lat="45.09357" lon="5.52676">
        <ele>951.4</ele>
        <time>2020-06-03T07:29:41Z</time>
      </trkpt>
      <trkpt lat="45.09339" lon="5.5268">
        <ele>949.4</ele>
        <time>2020-06-03T07:29:32Z</time>
      </trkpt>
      <trkpt lat="45.09323" lon="5.52683">
        <ele>946.6</ele>
        <time>2020-06-03T07:29:24Z</time>
      </trkpt>
      <trkpt lat="45.09321" lon="5.52684">
        <ele>946.1</ele>
        <time>2020-06-03T07:29:23Z</time>
      </trkpt>
      <trkpt lat="45.09302" lon="5.5268">
        <ele>945.1</ele>
        <time>2020-06-03T07:29:18Z</time>
      </trkpt>
      <trkpt lat="45.0928" lon="5.52664">
        <ele>944.2</ele>
        <time>2020-06-03T07:29:12Z</time>
      </trkpt>
      <trkpt lat="45.09246" lon="5.52657">
        <ele>944.2</ele>
        <time>2020-06-03T07:29:05Z</time>
      </trkpt>
      <trkpt lat="45.09241" lon="5.52655">
        <ele>944.2</ele>
        <time>2020-06-03T07:29:04Z</time>
      </trkpt>
      <trkpt lat="45.09231" lon="5.52629">
        <ele>944.2</ele>
        <time>2020-06-03T07:28:59Z</time>
      </trkpt>
      <trkpt lat="45.09233" lon="5.52596">
        <ele>944.2</ele>
        <time>2020-06-03T07:28:54Z</time>
      </trkpt>
      <trkpt lat="45.09233" lon="5.52577">
        <ele>944.2</ele>
        <time>2020-06-03T07:28:51Z</time>
      </trkpt>
      <trkpt lat="45.09227" lon="5.52558">
        <ele>944.2</ele>
        <time>2020-06-03T07:28:47Z</time>
      </trkpt>
      <trkpt lat="45.09208" lon="5.52555">
        <ele>944.2</ele>
        <time>2020-06-03T07:28:42Z</time>
      </trkpt>
      <trkpt lat="45.09196" lon="5.52541">
        <ele>944.2</ele>
        <time>2020-06-03T07:28:38Z</time>
      </trkpt>
      <trkpt lat="45.09183" lon="5.52497">
        <ele>943.7</ele>
        <time>2020-06-03T07:28:30Z</time>
      </trkpt>
      <trkpt lat="45.09165" lon="5.52452">
        <ele>942.7</ele>
        <time>2020-06-03T07:28:21Z</time>
      </trkpt>
      <trkpt lat="45.09161" lon="5.52442">
        <ele>942.7</ele>
        <time>2020-06-03T07:28:19Z</time>
      </trkpt>
      <trkpt lat="45.09144" lon="5.52422">
        <ele>942.7</ele>
        <time>2020-06-03T07:28:14Z</time>
      </trkpt>
      <trkpt lat="45.09121" lon="5.52413">
        <ele>942.7</ele>
        <time>2020-06-03T07:28:08Z</time>
      </trkpt>
      <trkpt lat="45.09111" lon="5.52401">
        <ele>942.7</ele>
        <time>2020-06-03T07:28:03Z</time>
      </trkpt>
      <trkpt lat="45.09107" lon="5.52392">
        <ele>942.2</ele>
        <time>2020-06-03T07:27:56Z</time>
      </trkpt>
      <trkpt lat="45.09107" lon="5.52391">
        <ele>942.2</ele>
        <time>2020-06-03T07:27:46Z</time>
      </trkpt>
      <trkpt lat="45.09098" lon="5.52384">
        <ele>942.2</ele>
        <time>2020-06-03T07:27:41Z</time>
      </trkpt>
      <trkpt lat="45.09078" lon="5.52395">
        <ele>942.2</ele>
        <time>2020-06-03T07:27:36Z</time>
      </trkpt>
      <trkpt lat="45.09062" lon="5.52399">
        <ele>942.2</ele>
        <time>2020-06-03T07:27:32Z</time>
      </trkpt>
      <trkpt lat="45.09038" lon="5.52418">
        <ele>942.2</ele>
        <time>2020-06-03T07:27:26Z</time>
      </trkpt>
      <trkpt lat="45.09023" lon="5.52441">
        <ele>942.2</ele>
        <time>2020-06-03T07:27:21Z</time>
      </trkpt>
      <trkpt lat="45.0902" lon="5.52444">
        <ele>942.2</ele>
        <time>2020-06-03T07:27:20Z</time>
      </trkpt>
      <trkpt lat="45.09004" lon="5.52449">
        <ele>942.2</ele>
        <time>2020-06-03T07:27:15Z</time>
      </trkpt>
      <trkpt lat="45.09001" lon="5.52441">
        <ele>941.3</ele>
        <time>2020-06-03T07:27:12Z</time>
      </trkpt>
      <trkpt lat="45.08987" lon="5.52422">
        <ele>941.3</ele>
        <time>2020-06-03T07:27:06Z</time>
      </trkpt>
      <trkpt lat="45.08961" lon="5.524">
        <ele>942.2</ele>
        <time>2020-06-03T07:27:00Z</time>
      </trkpt>
      <trkpt lat="45.08953" lon="5.52392">
        <ele>943.7</ele>
        <time>2020-06-03T07:26:58Z</time>
      </trkpt>
      <trkpt lat="45.08931" lon="5.52361">
        <ele>943.2</ele>
        <time>2020-06-03T07:26:52Z</time>
      </trkpt>
      <trkpt lat="45.08905" lon="5.52335">
        <ele>941.8</ele>
        <time>2020-06-03T07:26:44Z</time>
      </trkpt>
      <trkpt lat="45.08875" lon="5.52303">
        <ele>941.8</ele>
        <time>2020-06-03T07:26:37Z</time>
      </trkpt>
      <trkpt lat="45.08863" lon="5.52281">
        <ele>942.2</ele>
        <time>2020-06-03T07:26:34Z</time>
      </trkpt>
      <trkpt lat="45.08855" lon="5.52267">
        <ele>943.7</ele>
        <time>2020-06-03T07:26:32Z</time>
      </trkpt>
      <trkpt lat="45.08833" lon="5.52237">
        <ele>946.1</ele>
        <time>2020-06-03T07:26:27Z</time>
      </trkpt>
      <trkpt lat="45.08829" lon="5.52225">
        <ele>947</ele>
        <time>2020-06-03T07:26:25Z</time>
      </trkpt>
      <trkpt lat="45.08811" lon="5.52197">
        <ele>947</ele>
        <time>2020-06-03T07:26:18Z</time>
      </trkpt>
      <trkpt lat="45.08787" lon="5.52179">
        <ele>947</ele>
        <time>2020-06-03T07:26:10Z</time>
      </trkpt>
      <trkpt lat="45.08771" lon="5.52171">
        <ele>946.6</ele>
        <time>2020-06-03T07:26:05Z</time>
      </trkpt>
      <trkpt lat="45.08744" lon="5.52157">
        <ele>946.1</ele>
        <time>2020-06-03T07:25:56Z</time>
      </trkpt>
      <trkpt lat="45.08719" lon="5.52148">
        <ele>946.1</ele>
        <time>2020-06-03T07:25:49Z</time>
      </trkpt>
      <trkpt lat="45.08696" lon="5.52146">
        <ele>945.1</ele>
        <time>2020-06-03T07:25:41Z</time>
      </trkpt>
      <trkpt lat="45.08671" lon="5.52153">
        <ele>944.2</ele>
        <time>2020-06-03T07:25:32Z</time>
      </trkpt>
      <trkpt lat="45.08652" lon="5.52194">
        <ele>941.3</ele>
        <time>2020-06-03T07:25:22Z</time>
      </trkpt>
      <trkpt lat="45.08632" lon="5.52255">
        <ele>938.9</ele>
        <time>2020-06-03T07:25:11Z</time>
      </trkpt>
      <trkpt lat="45.08624" lon="5.52274">
        <ele>939.4</ele>
        <time>2020-06-03T07:25:08Z</time>
      </trkpt>
      <trkpt lat="45.08616" lon="5.52284">
        <ele>940.8</ele>
        <time>2020-06-03T07:25:06Z</time>
      </trkpt>
      <trkpt lat="45.08604" lon="5.52299">
        <ele>940.8</ele>
        <time>2020-06-03T07:25:02Z</time>
      </trkpt>
      <trkpt lat="45.08601" lon="5.5231">
        <ele>940.3</ele>
        <time>2020-06-03T07:25:00Z</time>
      </trkpt>
      <trkpt lat="45.0859" lon="5.52369">
        <ele>939.8</ele>
        <time>2020-06-03T07:24:49Z</time>
      </trkpt>
      <trkpt lat="45.08584" lon="5.52406">
        <ele>939.8</ele>
        <time>2020-06-03T07:24:42Z</time>
      </trkpt>
      <trkpt lat="45.08571" lon="5.52445">
        <ele>939.8</ele>
        <time>2020-06-03T07:24:34Z</time>
      </trkpt>
      <trkpt lat="45.0856" lon="5.52479">
        <ele>939.8</ele>
        <time>2020-06-03T07:24:25Z</time>
      </trkpt>
      <trkpt lat="45.08557" lon="5.52486">
        <ele>939.8</ele>
        <time>2020-06-03T07:24:21Z</time>
      </trkpt>
      <trkpt lat="45.08558" lon="5.52487">
        <ele>939.8</ele>
        <time>2020-06-03T07:24:15Z</time>
      </trkpt>
      <trkpt lat="45.08561" lon="5.52488">
        <ele>939.8</ele>
        <time>2020-06-03T07:23:56Z</time>
      </trkpt>
      <trkpt lat="45.0856" lon="5.52489">
        <ele>939.8</ele>
        <time>2020-06-03T07:23:46Z</time>
      </trkpt>
      <trkpt lat="45.08558" lon="5.52492">
        <ele>939.8</ele>
        <time>2020-06-03T07:23:40Z</time>
      </trkpt>
      <trkpt lat="45.08554" lon="5.52503">
        <ele>939.8</ele>
        <time>2020-06-03T07:23:36Z</time>
      </trkpt>
      <trkpt lat="45.0854" lon="5.52524">
        <ele>939.4</ele>
        <time>2020-06-03T07:23:28Z</time>
      </trkpt>
      <trkpt lat="45.08529" lon="5.52522">
        <ele>937.9</ele>
        <time>2020-06-03T07:23:24Z</time>
      </trkpt>
      <trkpt lat="45.08516" lon="5.52528">
        <ele>937.9</ele>
        <time>2020-06-03T07:23:20Z</time>
      </trkpt>
      <trkpt lat="45.08511" lon="5.52539">
        <ele>937.9</ele>
        <time>2020-06-03T07:23:18Z</time>
      </trkpt>
      <trkpt lat="45.08492" lon="5.52584">
        <ele>938.4</ele>
        <time>2020-06-03T07:23:10Z</time>
      </trkpt>
      <trkpt lat="45.0848" lon="5.52605">
        <ele>938.4</ele>
        <time>2020-06-03T07:23:06Z</time>
      </trkpt>
      <trkpt lat="45.08475" lon="5.52629">
        <ele>939.4</ele>
        <time>2020-06-03T07:23:02Z</time>
      </trkpt>
      <trkpt lat="45.08464" lon="5.52683">
        <ele>939.4</ele>
        <time>2020-06-03T07:22:53Z</time>
      </trkpt>
      <trkpt lat="45.0845" lon="5.52736">
        <ele>940.3</ele>
        <time>2020-06-03T07:22:44Z</time>
      </trkpt>
      <trkpt lat="45.08444" lon="5.52786">
        <ele>940.3</ele>
        <time>2020-06-03T07:22:34Z</time>
      </trkpt>
      <trkpt lat="45.08441" lon="5.52814">
        <ele>940.8</ele>
        <time>2020-06-03T07:22:26Z</time>
      </trkpt>
      <trkpt lat="45.08442" lon="5.52818">
        <ele>940.8</ele>
        <time>2020-06-03T07:22:08Z</time>
      </trkpt>
      <trkpt lat="45.08445" lon="5.52816">
        <ele>940.8</ele>
        <time>2020-06-03T07:21:47Z</time>
      </trkpt>
      <trkpt lat="45.08445" lon="5.52823">
        <ele>941.3</ele>
        <time>2020-06-03T07:21:42Z</time>
      </trkpt>
      <trkpt lat="45.08454" lon="5.52838">
        <ele>941.3</ele>
        <time>2020-06-03T07:21:36Z</time>
      </trkpt>
      <trkpt lat="45.08453" lon="5.52836">
        <ele>941.8</ele>
        <time>2020-06-03T07:21:30Z</time>
      </trkpt>
      <trkpt lat="45.08456" lon="5.52839">
        <ele>941.8</ele>
        <time>2020-06-03T07:21:25Z</time>
      </trkpt>
      <trkpt lat="45.08458" lon="5.52853">
        <ele>943.7</ele>
        <time>2020-06-03T07:21:19Z</time>
      </trkpt>
      <trkpt lat="45.08445" lon="5.52871">
        <ele>943.7</ele>
        <time>2020-06-03T07:21:12Z</time>
      </trkpt>
      <trkpt lat="45.08437" lon="5.52878">
        <ele>940.8</ele>
        <time>2020-06-03T07:21:09Z</time>
      </trkpt>
      <trkpt lat="45.08418" lon="5.52933">
        <ele>941.8</ele>
        <time>2020-06-03T07:21:01Z</time>
      </trkpt>
      <trkpt lat="45.08406" lon="5.52974">
        <ele>943.2</ele>
        <time>2020-06-03T07:20:57Z</time>
      </trkpt>
      <trkpt lat="45.08401" lon="5.5299">
        <ele>943.2</ele>
        <time>2020-06-03T07:20:54Z</time>
      </trkpt>
      <trkpt lat="45.08395" lon="5.52999">
        <ele>943.2</ele>
        <time>2020-06-03T07:20:52Z</time>
      </trkpt>
      <trkpt lat="45.0839" lon="5.53009">
        <ele>943.2</ele>
        <time>2020-06-03T07:20:50Z</time>
      </trkpt>
      <trkpt lat="45.08379" lon="5.53034">
        <ele>943.2</ele>
        <time>2020-06-03T07:20:45Z</time>
      </trkpt>
      <trkpt lat="45.08372" lon="5.53048">
        <ele>943.2</ele>
        <time>2020-06-03T07:20:42Z</time>
      </trkpt>
      <trkpt lat="45.08347" lon="5.53071">
        <ele>943.2</ele>
        <time>2020-06-03T07:20:35Z</time>
      </trkpt>
      <trkpt lat="45.08335" lon="5.5308">
        <ele>943.2</ele>
        <time>2020-06-03T07:20:32Z</time>
      </trkpt>
      <trkpt lat="45.08319" lon="5.53095">
        <ele>943.2</ele>
        <time>2020-06-03T07:20:27Z</time>
      </trkpt>
      <trkpt lat="45.08303" lon="5.53104">
        <ele>943.2</ele>
        <time>2020-06-03T07:20:23Z</time>
      </trkpt>
      <trkpt lat="45.08279" lon="5.53125">
        <ele>943.2</ele>
        <time>2020-06-03T07:20:16Z</time>
      </trkpt>
      <trkpt lat="45.08259" lon="5.53133">
        <ele>943.2</ele>
        <time>2020-06-03T07:20:11Z</time>
      </trkpt>
      <trkpt lat="45.08255" lon="5.53132">
        <ele>943.2</ele>
        <time>2020-06-03T07:20:10Z</time>
      </trkpt>
      <trkpt lat="45.08224" lon="5.5313">
        <ele>943.7</ele>
        <time>2020-06-03T07:20:03Z</time>
      </trkpt>
      <trkpt lat="45.08181" lon="5.53154">
        <ele>943.7</ele>
        <time>2020-06-03T07:19:52Z</time>
      </trkpt>
      <trkpt lat="45.08154" lon="5.53169">
        <ele>943.7</ele>
        <time>2020-06-03T07:19:44Z</time>
      </trkpt>
      <trkpt lat="45.08131" lon="5.53187">
        <ele>943.7</ele>
        <time>2020-06-03T07:19:37Z</time>
      </trkpt>
      <trkpt lat="45.08124" lon="5.53191">
        <ele>944.2</ele>
        <time>2020-06-03T07:19:36Z</time>
      </trkpt>
      <trkpt lat="45.08084" lon="5.53212">
        <ele>946.6</ele>
        <time>2020-06-03T07:19:32Z</time>
      </trkpt>
      <trkpt lat="45.08063" lon="5.53219">
        <ele>951.8</ele>
        <time>2020-06-03T07:19:30Z</time>
      </trkpt>
      <trkpt lat="45.08042" lon="5.53224">
        <ele>955.7</ele>
        <time>2020-06-03T07:19:28Z</time>
      </trkpt>
      <trkpt lat="45.08023" lon="5.53228">
        <ele>959.1</ele>
        <time>2020-06-03T07:19:26Z</time>
      </trkpt>
      <trkpt lat="45.07996" lon="5.53236">
        <ele>963.4</ele>
        <time>2020-06-03T07:19:23Z</time>
      </trkpt>
      <trkpt lat="45.07972" lon="5.53244">
        <ele>966.7</ele>
        <time>2020-06-03T07:19:20Z</time>
      </trkpt>
      <trkpt lat="45.07948" lon="5.53253">
        <ele>970.6</ele>
        <time>2020-06-03T07:19:15Z</time>
      </trkpt>
      <trkpt lat="45.0793" lon="5.53266">
        <ele>972</ele>
        <time>2020-06-03T07:19:08Z</time>
      </trkpt>
      <trkpt lat="45.07914" lon="5.53285">
        <ele>969.6</ele>
        <time>2020-06-03T07:18:58Z</time>
      </trkpt>
      <trkpt lat="45.07898" lon="5.53304">
        <ele>967.7</ele>
        <time>2020-06-03T07:18:49Z</time>
      </trkpt>
      <trkpt lat="45.07884" lon="5.53324">
        <ele>966.3</ele>
        <time>2020-06-03T07:18:41Z</time>
      </trkpt>
      <trkpt lat="45.07869" lon="5.53342">
        <ele>964.8</ele>
        <time>2020-06-03T07:18:33Z</time>
      </trkpt>
      <trkpt lat="45.07855" lon="5.53364">
        <ele>963.4</ele>
        <time>2020-06-03T07:18:25Z</time>
      </trkpt>
      <trkpt lat="45.07844" lon="5.53383">
        <ele>961.9</ele>
        <time>2020-06-03T07:18:19Z</time>
      </trkpt>
      <trkpt lat="45.07831" lon="5.53404">
        <ele>961</ele>
        <time>2020-06-03T07:18:13Z</time>
      </trkpt>
      <trkpt lat="45.07815" lon="5.53427">
        <ele>959.5</ele>
        <time>2020-06-03T07:18:07Z</time>
      </trkpt>
      <trkpt lat="45.07798" lon="5.53463">
        <ele>960.5</ele>
        <time>2020-06-03T07:18:01Z</time>
      </trkpt>
      <trkpt lat="45.07783" lon="5.53488">
        <ele>961.9</ele>
        <time>2020-06-03T07:17:56Z</time>
      </trkpt>
      <trkpt lat="45.07778" lon="5.53498">
        <ele>961.9</ele>
        <time>2020-06-03T07:17:54Z</time>
      </trkpt>
      <trkpt lat="45.07775" lon="5.53519">
        <ele>961.9</ele>
        <time>2020-06-03T07:17:50Z</time>
      </trkpt>
      <trkpt lat="45.07777" lon="5.53547">
        <ele>961.9</ele>
        <time>2020-06-03T07:17:44Z</time>
      </trkpt>
      <trkpt lat="45.07781" lon="5.53574">
        <ele>960.5</ele>
        <time>2020-06-03T07:17:37Z</time>
      </trkpt>
      <trkpt lat="45.0778" lon="5.53603">
        <ele>958.1</ele>
        <time>2020-06-03T07:17:30Z</time>
      </trkpt>
      <trkpt lat="45.07769" lon="5.53626">
        <ele>957.1</ele>
        <time>2020-06-03T07:17:25Z</time>
      </trkpt>
      <trkpt lat="45.07762" lon="5.53633">
        <ele>957.6</ele>
        <time>2020-06-03T07:17:23Z</time>
      </trkpt>
      <trkpt lat="45.07736" lon="5.53644">
        <ele>955.7</ele>
        <time>2020-06-03T07:17:16Z</time>
      </trkpt>
      <trkpt lat="45.07707" lon="5.53647">
        <ele>954.3</ele>
        <time>2020-06-03T07:17:10Z</time>
      </trkpt>
      <trkpt lat="45.07695" lon="5.53647">
        <ele>955.2</ele>
        <time>2020-06-03T07:17:08Z</time>
      </trkpt>
      <trkpt lat="45.07682" lon="5.53648">
        <ele>955.7</ele>
        <time>2020-06-03T07:17:06Z</time>
      </trkpt>
      <trkpt lat="45.0767" lon="5.53652">
        <ele>957.1</ele>
        <time>2020-06-03T07:17:04Z</time>
      </trkpt>
      <trkpt lat="45.07664" lon="5.53654">
        <ele>957.1</ele>
        <time>2020-06-03T07:17:03Z</time>
      </trkpt>
      <trkpt lat="45.07635" lon="5.53662">
        <ele>958.6</ele>
        <time>2020-06-03T07:16:57Z</time>
      </trkpt>
      <trkpt lat="45.0763" lon="5.53662">
        <ele>958.6</ele>
        <time>2020-06-03T07:16:56Z</time>
      </trkpt>
      <trkpt lat="45.07607" lon="5.5367">
        <ele>958.6</ele>
        <time>2020-06-03T07:16:51Z</time>
      </trkpt>
      <trkpt lat="45.07604" lon="5.53674">
        <ele>958.6</ele>
        <time>2020-06-03T07:16:50Z</time>
      </trkpt>
      <trkpt lat="45.07584" lon="5.53701">
        <ele>956.2</ele>
        <time>2020-06-03T07:16:43Z</time>
      </trkpt>
      <trkpt lat="45.0758" lon="5.53706">
        <ele>956.2</ele>
        <time>2020-06-03T07:16:42Z</time>
      </trkpt>
      <trkpt lat="45.0753" lon="5.53761">
        <ele>956.2</ele>
        <time>2020-06-03T07:16:31Z</time>
      </trkpt>
      <trkpt lat="45.075" lon="5.53774">
        <ele>956.2</ele>
        <time>2020-06-03T07:16:26Z</time>
      </trkpt>
      <trkpt lat="45.07471" lon="5.53773">
        <ele>957.1</ele>
        <time>2020-06-03T07:16:22Z</time>
      </trkpt>
      <trkpt lat="45.07457" lon="5.53768">
        <ele>957.1</ele>
        <time>2020-06-03T07:16:20Z</time>
      </trkpt>
      <trkpt lat="45.07402" lon="5.53751">
        <ele>961</ele>
        <time>2020-06-03T07:16:12Z</time>
      </trkpt>
      <trkpt lat="45.07389" lon="5.5375">
        <ele>961.5</ele>
        <time>2020-06-03T07:16:10Z</time>
      </trkpt>
      <trkpt lat="45.07371" lon="5.53754">
        <ele>962.9</ele>
        <time>2020-06-03T07:16:07Z</time>
      </trkpt>
      <trkpt lat="45.07353" lon="5.53763">
        <ele>964.8</ele>
        <time>2020-06-03T07:16:03Z</time>
      </trkpt>
      <trkpt lat="45.07325" lon="5.53772">
        <ele>964.8</ele>
        <time>2020-06-03T07:15:54Z</time>
      </trkpt>
      <trkpt lat="45.07306" lon="5.53779">
        <ele>964.8</ele>
        <time>2020-06-03T07:15:47Z</time>
      </trkpt>
      <trkpt lat="45.07296" lon="5.53793">
        <ele>964.3</ele>
        <time>2020-06-03T07:15:41Z</time>
      </trkpt>
      <trkpt lat="45.07294" lon="5.53825">
        <ele>962.4</ele>
        <time>2020-06-03T07:15:33Z</time>
      </trkpt>
      <trkpt lat="45.07304" lon="5.53862">
        <ele>960</ele>
        <time>2020-06-03T07:15:24Z</time>
      </trkpt>
      <trkpt lat="45.07308" lon="5.53887">
        <ele>958.6</ele>
        <time>2020-06-03T07:15:20Z</time>
      </trkpt>
      <trkpt lat="45.07302" lon="5.53914">
        <ele>959.1</ele>
        <time>2020-06-03T07:15:16Z</time>
      </trkpt>
      <trkpt lat="45.07298" lon="5.53928">
        <ele>959.1</ele>
        <time>2020-06-03T07:15:14Z</time>
      </trkpt>
      <trkpt lat="45.07294" lon="5.53964">
        <ele>959.1</ele>
        <time>2020-06-03T07:15:09Z</time>
      </trkpt>
      <trkpt lat="45.07293" lon="5.53977">
        <ele>959.5</ele>
        <time>2020-06-03T07:15:07Z</time>
      </trkpt>
      <trkpt lat="45.07294" lon="5.54011">
        <ele>960</ele>
        <time>2020-06-03T07:15:02Z</time>
      </trkpt>
      <trkpt lat="45.07296" lon="5.54024">
        <ele>960</ele>
        <time>2020-06-03T07:15:00Z</time>
      </trkpt>
      <trkpt lat="45.07309" lon="5.54055">
        <ele>960</ele>
        <time>2020-06-03T07:14:55Z</time>
      </trkpt>
      <trkpt lat="45.07322" lon="5.54068">
        <ele>961</ele>
        <time>2020-06-03T07:14:52Z</time>
      </trkpt>
      <trkpt lat="45.0734" lon="5.54076">
        <ele>961.5</ele>
        <time>2020-06-03T07:14:48Z</time>
      </trkpt>
      <trkpt lat="45.07364" lon="5.54075">
        <ele>961.9</ele>
        <time>2020-06-03T07:14:43Z</time>
      </trkpt>
      <trkpt lat="45.07386" lon="5.54082">
        <ele>961.9</ele>
        <time>2020-06-03T07:14:39Z</time>
      </trkpt>
      <trkpt lat="45.07404" lon="5.5411">
        <ele>962.4</ele>
        <time>2020-06-03T07:14:35Z</time>
      </trkpt>
      <trkpt lat="45.07406" lon="5.54162">
        <ele>962.9</ele>
        <time>2020-06-03T07:14:30Z</time>
      </trkpt>
      <trkpt lat="45.07397" lon="5.54196">
        <ele>963.4</ele>
        <time>2020-06-03T07:14:27Z</time>
      </trkpt>
      <trkpt lat="45.07378" lon="5.5428">
        <ele>966.7</ele>
        <time>2020-06-03T07:14:19Z</time>
      </trkpt>
      <trkpt lat="45.07363" lon="5.54322">
        <ele>967.7</ele>
        <time>2020-06-03T07:14:14Z</time>
      </trkpt>
      <trkpt lat="45.0733" lon="5.54365">
        <ele>968.7</ele>
        <time>2020-06-03T07:14:07Z</time>
      </trkpt>
      <trkpt lat="45.07317" lon="5.54383">
        <ele>969.2</ele>
        <time>2020-06-03T07:14:04Z</time>
      </trkpt>
      <trkpt lat="45.07322" lon="5.54422">
        <ele>969.6</ele>
        <time>2020-06-03T07:13:59Z</time>
      </trkpt>
      <trkpt lat="45.07329" lon="5.54435">
        <ele>970.1</ele>
        <time>2020-06-03T07:13:57Z</time>
      </trkpt>
      <trkpt lat="45.0737" lon="5.54495">
        <ele>971.1</ele>
        <time>2020-06-03T07:13:46Z</time>
      </trkpt>
      <trkpt lat="45.07379" lon="5.54512">
        <ele>972.5</ele>
        <time>2020-06-03T07:13:43Z</time>
      </trkpt>
      <trkpt lat="45.07386" lon="5.54532">
        <ele>972.5</ele>
        <time>2020-06-03T07:13:40Z</time>
      </trkpt>
      <trkpt lat="45.07395" lon="5.54577">
        <ele>972.5</ele>
        <time>2020-06-03T07:13:33Z</time>
      </trkpt>
      <trkpt lat="45.07397" lon="5.54598">
        <ele>972.5</ele>
        <time>2020-06-03T07:13:29Z</time>
      </trkpt>
      <trkpt lat="45.07407" lon="5.54625">
        <ele>972.5</ele>
        <time>2020-06-03T07:13:22Z</time>
      </trkpt>
      <trkpt lat="45.07421" lon="5.54637">
        <ele>973</ele>
        <time>2020-06-03T07:13:14Z</time>
        <extensions>
          <visugpx:TrkExtension xmlns:visugpx="https://www.visugpx.com/editgpx/">
            <visugpx:node>6</visugpx:node>
            </visugpx:TrkExtension>
        </extensions>
      </trkpt>
    </trkseg>
  </trk>
</gpx>